MEDAR Group (2012): Physical oceanography measured on water bottle samples during URAGAN cruise 72 [dataset]. Marine Hydrophysical Institute, National Academy of Sciences of Ukraine, PANGAEA, https://doi.org/10.1594/PANGAEA.803330
Always quote citation above when using data! You can download the citation in several formats below.
Published: 2012-12-03 • DOI registered: 2012-12-31
Related to:
Fichaut, Michele; Garcia, M J; Giorgetti, A; Iona, A; Kuznetsov, A; Rixen, M; MEDAR Group (2003): MEDAR/MEDATLAS 2002: A Mediterranean and Black Sea database for operational oceanography. Elsevier Oceanography Series, 69, 645-648, https://doi.org/10.1016/S0422-9894(03)80107-1
MEDAR Group (2002): MEDATLAS/2002 database. Mediterranean and Black Sea database of temperature salinity and bio-chemical parameters. Climatological Atlas. Institut Français de Recherche pour L´Exploitation de la Mer, (IFREMER) Edition & Instituto Nazionale di Oceanografia e di Geofisica Sperimentale (OGS), 4 CD-ROM
Further details:
Quality flag conversion MEDATLAS PANGAEA. hdl:10013/epic.26895.d001
Project(s):
Mediterranean Data Archaeology and Rescue (MEDAR/MEDATLAS)
Funding:
European Commission (EC), grant/award no. ERBIC20-CT98-0103: Mediterranean Data Archaeology and Rescue
Coverage:
Median Latitude: 43.739293 * Median Longitude: 38.710399 * South-bound Latitude: 41.650000 * West-bound Longitude: 34.166700 * North-bound Latitude: 44.900000 * East-bound Longitude: 41.666700
Date/Time Start: 1987-04-01T09:00:00 * Date/Time End: 1987-06-30T15:00:00
Minimum DEPTH, water: 0.00 m * Maximum DEPTH, water: 200.01 m
Event(s):
UMUR19873057200010 * Latitude: 41.650000 * Longitude: 41.666700 * Date/Time: 1987-06-05T09:43:00 * Location: Black Sea * Campaign: Uragan_72 * Basis: Uragan * Method/Device: CTD/Rosette (CTD-RO)
UMUR19873057200020 * Latitude: 41.650000 * Longitude: 41.650000 * Date/Time: 1987-06-05T10:00:00 * Location: Black Sea * Campaign: Uragan_72 * Basis: Uragan * Method/Device: CTD/Rosette (CTD-RO)
UMUR19873057200030 * Latitude: 41.666700 * Longitude: 41.666700 * Date/Time: 1987-06-05T10:20:00 * Location: Black Sea * Campaign: Uragan_72 * Basis: Uragan * Method/Device: CTD/Rosette (CTD-RO)
Parameter(s):
| # | Name | Short Name | Unit | Principal Investigator | Method/Device | Comment |
|---|---|---|---|---|---|---|
| 1 | Event label | Event | ||||
| 2 | Date/Time of event | Date/Time | ||||
| 3 | Latitude of event | Latitude | ||||
| 4 | Longitude of event | Longitude | ||||
| 5 | DEPTH, water | Depth water | m | Geocode | ||
| 6 | Pressure, water | Press | dbar | CTD | ||
| 7 | Temperature, water | Temp | °C | CTD | ||
| 8 | Salinity | Sal | CTD, pre-1978 standard (Fofonoff & Millard, 1983, UNESCO Tech Pap Marine Sci 44) |
License:
Creative Commons Attribution 3.0 Unported (CC-BY-3.0)
Size:
2224 data points
Data
| 1 Event | 2 Date/Time | 3 Latitude | 4 Longitude | 5 Depth water [m] | 6 Press [dbar] | 7 Temp [°C] | 8 Sal |
|---|---|---|---|---|---|---|---|
| UMUR19873057200010 | 1987-06-05T09:43 | 41.6500 | 41.6667 | 0.00 | 0.0 | 15.400 | 16.320 |
| UMUR19873057200010 | 1987-06-05T09:43 | 41.6500 | 41.6667 | 3.97 | 4.0 | 12.620 | 16.840 |
| UMUR19873057200020 | 1987-06-05T10:00 | 41.6500 | 41.6500 | 0.00 | 0.0 | 15.200 | 16.380 |
| UMUR19873057200020 | 1987-06-05T10:00 | 41.6500 | 41.6500 | 9.03 | 9.1 | 12.920 | 17.460 |
| UMUR19873057200030 | 1987-06-05T10:20 | 41.6667 | 41.6667 | 0.00 | 0.0 | 15.500 | 15.730 |
| UMUR19873057200030 | 1987-06-05T10:20 | 41.6667 | 41.6667 | 1.98 | 2.0 | 12.820 | 16.150 |
| UMUR19873057200040 | 1987-06-19T03:18 | 41.6500 | 41.6500 | 0.00 | 0.0 | 21.200 | 10.720 |
| UMUR19873057200040 | 1987-06-19T03:18 | 41.6500 | 41.6500 | 9.03 | 9.1 | 20.230 | 15.450 |
| UMUR19873057200050 | 1987-06-19T03:55 | 41.6500 | 41.6667 | 0.00 | 0.0 | 22.000 | 11.090 |
| UMUR19873057200050 | 1987-06-19T03:55 | 41.6500 | 41.6667 | 3.97 | 4.0 | 21.530 | 12.390 |
| UMUR19873057200060 | 1987-06-19T04:22 | 41.6667 | 41.6667 | 0.00 | 0.0 | 22.200 | 10.110 |
| UMUR19873057200060 | 1987-06-19T04:22 | 41.6667 | 41.6667 | 1.98 | 2.0 | 22.030 | 10.890 |
| UMUR19873057200070 | 1987-06-19T05:07 | 41.6667 | 41.6500 | 0.00 | 0.0 | 21.500 | 15.770 |
| UMUR19873057200070 | 1987-06-19T05:07 | 41.6667 | 41.6500 | 10.02 | 10.1 | 19.530 | 16.190 |
| UMUR19873057200070 | 1987-06-19T05:07 | 41.6667 | 41.6500 | 12.00 | 12.1 | 19.330 | 16.400 |
| UMUR19873057200080 | 1987-06-19T08:20 | 41.6667 | 41.6500 | 0.00 | 0.0 | 22.000 | 15.420 |
| UMUR19873057200080 | 1987-06-19T08:20 | 41.6667 | 41.6500 | 10.02 | 10.1 | 20.030 | 16.100 |
| UMUR19873057200080 | 1987-06-19T08:20 | 41.6667 | 41.6500 | 12.00 | 12.1 | 19.830 | 16.280 |
| UMUR19873057200090 | 1987-06-19T11:20 | 41.6667 | 41.6500 | 0.00 | 0.0 | 22.000 | 14.160 |
| UMUR19873057200090 | 1987-06-19T11:20 | 41.6667 | 41.6500 | 10.02 | 10.1 | 20.030 | ?15.980 |
| UMUR19873057200090 | 1987-06-19T11:20 | 41.6667 | 41.6500 | 12.00 | 12.1 | 19.830 | 16.120 |
| UMUR19873057200100 | 1987-06-19T14:20 | 41.6667 | 41.6500 | 0.00 | 0.0 | 21.800 | 13.290 |
| UMUR19873057200100 | 1987-06-19T14:20 | 41.6667 | 41.6500 | 10.02 | 10.1 | 20.030 | ?15.900 |
| UMUR19873057200100 | 1987-06-19T14:20 | 41.6667 | 41.6500 | 12.00 | 12.1 | 19.830 | 16.100 |
| UMUR19873057200110 | 1987-06-19T17:20 | 41.6667 | 41.6500 | 0.00 | 0.0 | 21.600 | 13.440 |
| UMUR19873057200110 | 1987-06-19T17:20 | 41.6667 | 41.6500 | 10.02 | 10.1 | 19.630 | ?16.230 |
| UMUR19873057200110 | 1987-06-19T17:20 | 41.6667 | 41.6500 | 12.00 | 12.1 | 19.430 | 16.380 |
| UMUR19873057200120 | 1987-06-19T20:20 | 41.6667 | 41.6500 | 0.00 | 0.0 | 21.300 | 13.860 |
| UMUR19873057200120 | 1987-06-19T20:20 | 41.6667 | 41.6500 | 10.02 | 10.1 | 19.330 | ?16.450 |
| UMUR19873057200120 | 1987-06-19T20:20 | 41.6667 | 41.6500 | 12.00 | 12.1 | 19.130 | 16.580 |
| UMUR19873057200130 | 1987-06-19T23:20 | 41.6667 | 41.6500 | 0.00 | 0.0 | 21.000 | 13.970 |
| UMUR19873057200130 | 1987-06-19T23:20 | 41.6667 | 41.6500 | 10.02 | 10.1 | 19.030 | ?16.720 |
| UMUR19873057200130 | 1987-06-19T23:20 | 41.6667 | 41.6500 | 12.00 | 12.1 | 18.730 | 16.820 |
| UMUR19873057200140 | 1987-06-20T02:20 | 41.6667 | 41.6500 | 0.00 | 0.0 | 20.700 | 14.060 |
| UMUR19873057200140 | 1987-06-20T02:20 | 41.6667 | 41.6500 | 10.02 | 10.1 | 18.830 | ?16.910 |
| UMUR19873057200140 | 1987-06-20T02:20 | 41.6667 | 41.6500 | 12.00 | 12.1 | 18.630 | 16.980 |
| UMUR19873057200150 | 1987-06-20T05:20 | 41.6667 | 41.6500 | 0.00 | 0.0 | 21.000 | 15.360 |
| UMUR19873057200150 | 1987-06-20T05:20 | 41.6667 | 41.6500 | 10.02 | 10.1 | 18.930 | ?16.650 |
| UMUR19873057200150 | 1987-06-20T05:20 | 41.6667 | 41.6500 | 12.00 | 12.1 | 18.730 | 16.760 |
| UMUR19873057200160 | 1987-06-20T08:20 | 41.6667 | 41.6500 | 0.00 | 0.0 | 21.500 | 15.280 |
| UMUR19873057200160 | 1987-06-20T08:20 | 41.6667 | 41.6500 | 10.02 | 10.1 | 19.230 | ?16.600 |
| UMUR19873057200160 | 1987-06-20T08:20 | 41.6667 | 41.6500 | 12.00 | 12.1 | 19.030 | 16.670 |
| UMUR19873057200170 | 1987-06-20T11:20 | 41.6667 | 41.6500 | 0.00 | 0.0 | 21.800 | 15.300 |
| UMUR19873057200170 | 1987-06-20T11:20 | 41.6667 | 41.6500 | 10.02 | 10.1 | 19.830 | ?16.490 |
| UMUR19873057200170 | 1987-06-20T11:20 | 41.6667 | 41.6500 | 12.00 | 12.1 | 19.530 | 16.570 |
| UMUR19873057200180 | 1987-06-20T14:20 | 41.6667 | 41.6500 | 0.00 | 0.0 | 21.600 | 15.240 |
| UMUR19873057200180 | 1987-06-20T14:20 | 41.6667 | 41.6500 | 10.02 | 10.1 | 19.830 | ?16.530 |
| UMUR19873057200180 | 1987-06-20T14:20 | 41.6667 | 41.6500 | 12.00 | 12.1 | 19.630 | 16.630 |
| UMUR19873057200190 | 1987-06-20T17:20 | 41.6667 | 41.6500 | 0.00 | 0.0 | 21.400 | 14.480 |
| UMUR19873057200190 | 1987-06-20T17:20 | 41.6667 | 41.6500 | 10.02 | 10.1 | 19.630 | ?16.340 |
| UMUR19873057200190 | 1987-06-20T17:20 | 41.6667 | 41.6500 | 12.00 | 12.1 | 19.430 | 16.460 |
| UMUR19873057200200 | 1987-06-20T20:20 | 41.6667 | 41.6500 | 0.00 | 0.0 | 21.200 | 14.620 |
| UMUR19873057200200 | 1987-06-20T20:20 | 41.6667 | 41.6500 | 10.02 | 10.1 | 19.430 | ?16.420 |
| UMUR19873057200200 | 1987-06-20T20:20 | 41.6667 | 41.6500 | 12.00 | 12.1 | 19.230 | 16.530 |
| UMUR19873057200210 | 1987-06-20T23:20 | 41.6667 | 41.6500 | 0.00 | 0.0 | 20.800 | 15.190 |
| UMUR19873057200210 | 1987-06-20T23:20 | 41.6667 | 41.6500 | 10.02 | 10.1 | 19.830 | ?16.490 |
| UMUR19873057200210 | 1987-06-20T23:20 | 41.6667 | 41.6500 | 12.00 | 12.1 | 19.030 | 16.600 |
| UMUR19873057200220 | 1987-06-21T02:20 | 41.6667 | 41.6500 | 0.00 | 0.0 | 20.800 | 16.440 |
| UMUR19873057200220 | 1987-06-21T02:20 | 41.6667 | 41.6500 | 10.02 | 10.1 | 19.330 | 16.720 |
| UMUR19873057200220 | 1987-06-21T02:20 | 41.6667 | 41.6500 | 12.00 | 12.1 | 19.030 | 16.830 |
| UMUR19873057200230 | 1987-06-21T05:20 | 41.6667 | 41.6500 | 0.00 | 0.0 | 20.900 | 15.810 |
| UMUR19873057200230 | 1987-06-21T05:20 | 41.6667 | 41.6500 | 10.02 | 10.1 | 19.330 | ?16.870 |
| UMUR19873057200230 | 1987-06-21T05:20 | 41.6667 | 41.6500 | 12.00 | 12.1 | 19.020 | 16.940 |
| UMUR19873057200240 | 1987-06-21T08:20 | 41.6667 | 41.6500 | 0.00 | 0.0 | 21.200 | 15.640 |
| UMUR19873057200240 | 1987-06-21T08:20 | 41.6667 | 41.6500 | 10.02 | 10.1 | 19.530 | 16.500 |
| UMUR19873057200240 | 1987-06-21T08:20 | 41.6667 | 41.6500 | 12.00 | 12.1 | 19.230 | 16.580 |
| UMUR19873057200250 | 1987-06-21T11:30 | 41.6667 | 41.6500 | 0.00 | 0.0 | 21.300 | 15.280 |
| UMUR19873057200250 | 1987-06-21T11:30 | 41.6667 | 41.6500 | 10.02 | 10.1 | 19.530 | ?16.450 |
| UMUR19873057200250 | 1987-06-21T11:30 | 41.6667 | 41.6500 | 12.00 | 12.1 | 19.330 | 16.530 |
| UMUR19873057200260 | 1987-06-21T14:30 | 41.6667 | 41.6500 | 0.00 | 0.0 | 21.500 | 14.560 |
| UMUR19873057200260 | 1987-06-21T14:30 | 41.6667 | 41.6500 | 10.02 | 10.1 | 19.730 | ?16.510 |
| UMUR19873057200260 | 1987-06-21T14:30 | 41.6667 | 41.6500 | 12.00 | 12.1 | 19.530 | 16.620 |
| UMUR19873057200270 | 1987-06-21T17:20 | 41.6667 | 41.6500 | 0.00 | 0.0 | 21.500 | 14.420 |
| UMUR19873057200270 | 1987-06-21T17:20 | 41.6667 | 41.6500 | 10.02 | 10.1 | 19.630 | ?16.400 |
| UMUR19873057200270 | 1987-06-21T17:20 | 41.6667 | 41.6500 | 12.00 | 12.1 | 19.530 | 16.490 |
| UMUR19873057200280 | 1987-06-21T20:30 | 41.6667 | 41.6500 | 0.00 | 0.0 | 21.200 | 14.360 |
| UMUR19873057200280 | 1987-06-21T20:30 | 41.6667 | 41.6500 | 10.02 | 10.1 | 19.530 | ?16.610 |
| UMUR19873057200280 | 1987-06-21T20:30 | 41.6667 | 41.6500 | 12.00 | 12.1 | 19.330 | 16.720 |
| UMUR19873057200290 | 1987-06-21T23:30 | 41.6667 | 41.6500 | 0.00 | 0.0 | 21.000 | 15.100 |
| UMUR19873057200290 | 1987-06-21T23:30 | 41.6667 | 41.6500 | 10.02 | 10.1 | 19.430 | ?16.450 |
| UMUR19873057200290 | 1987-06-21T23:30 | 41.6667 | 41.6500 | 12.00 | 12.1 | 19.230 | 16.580 |
| UMUR19873057200300 | 1987-06-22T02:30 | 41.6667 | 41.6500 | 0.00 | 0.0 | 20.800 | 15.540 |
| UMUR19873057200300 | 1987-06-22T02:30 | 41.6667 | 41.6500 | 10.02 | 10.1 | 19.330 | ?16.710 |
| UMUR19873057200300 | 1987-06-22T02:30 | 41.6667 | 41.6500 | 12.00 | 12.1 | 19.130 | 16.830 |
| UMUR19873057200310 | 1987-06-22T05:30 | 41.6667 | 41.6500 | 0.00 | 0.0 | 20.900 | 15.780 |
| UMUR19873057200310 | 1987-06-22T05:30 | 41.6667 | 41.6500 | 10.02 | 10.1 | 19.430 | ?16.820 |
| UMUR19873057200310 | 1987-06-22T05:30 | 41.6667 | 41.6500 | 12.00 | 12.1 | 19.230 | 16.950 |
| UMUR19873057200320 | 1987-06-22T16:48 | 41.6667 | 41.6217 | 0.00 | 0.0 | 22.200 | 13.130 |
| UMUR19873057200320 | 1987-06-22T16:48 | 41.6667 | 41.6217 | 4.96 | 5.0 | 21.430 | ?16.950 |
| UMUR19873057200320 | 1987-06-22T16:48 | 41.6667 | 41.6217 | 10.02 | 10.1 | 20.030 | 17.490 |
| UMUR19873057200320 | 1987-06-22T16:48 | 41.6667 | 41.6217 | 14.98 | 15.1 | 15.230 | 17.750 |
| UMUR19873057200320 | 1987-06-22T16:48 | 41.6667 | 41.6217 | 20.03 | 20.2 | ?10.030 | 18.070 |
| UMUR19873057200320 | 1987-06-22T16:48 | 41.6667 | 41.6217 | 22.02 | 22.2 | 9.030 | 18.180 |
| UMUR19873057200330 | 1987-06-23T01:32 | 42.1650 | 41.6117 | 0.00 | 0.0 | 22.000 | 11.150 |
| UMUR19873057200330 | 1987-06-23T01:32 | 42.1650 | 41.6117 | 4.96 | 5.0 | 21.030 | ?16.120 |
| UMUR19873057200330 | 1987-06-23T01:32 | 42.1650 | 41.6117 | 10.02 | 10.1 | 17.830 | 17.380 |
| UMUR19873057200330 | 1987-06-23T01:32 | 42.1650 | 41.6117 | 14.98 | 15.1 | ?14.230 | 17.700 |
| UMUR19873057200330 | 1987-06-23T01:32 | 42.1650 | 41.6117 | 19.04 | 19.2 | 10.530 | 18.030 |
| UMUR19873057200340 | 1987-06-24T04:42 | 43.1317 | 40.5167 | 0.00 | 0.0 | 20.300 | 16.420 |
| UMUR19873057200340 | 1987-06-24T04:42 | 43.1317 | 40.5167 | 4.96 | 5.0 | ?15.630 | ?17.660 |
| UMUR19873057200340 | 1987-06-24T04:42 | 43.1317 | 40.5167 | 9.02 | 9.1 | 13.430 | 17.800 |
| UMUR19873057200350 | 1987-06-24T05:58 | 43.0817 | 40.5667 | 0.00 | 0.0 | 20.400 | 17.010 |
| UMUR19873057200350 | 1987-06-24T05:58 | 43.0817 | 40.5667 | 4.96 | 5.0 | ?17.430 | ?17.910 |
| UMUR19873057200350 | 1987-06-24T05:58 | 43.0817 | 40.5667 | 10.02 | 10.1 | ?12.430 | 17.970 |
| UMUR19873057200350 | 1987-06-24T05:58 | 43.0817 | 40.5667 | 19.04 | 19.2 | 9.430 | 18.050 |
| UMUR19873057200360 | 1987-06-24T08:23 | 43.0500 | 40.8817 | 0.00 | 0.0 | 21.000 | 16.960 |
| UMUR19873057200360 | 1987-06-24T08:23 | 43.0500 | 40.8817 | 4.96 | 5.0 | ?15.830 | ?17.670 |
| UMUR19873057200360 | 1987-06-24T08:23 | 43.0500 | 40.8817 | 9.02 | 9.1 | 13.630 | 17.820 |
| UMUR19873057200370 | 1987-06-25T05:10 | 43.0000 | 41.0167 | 0.00 | 0.0 | 22.700 | 9.890 |
| UMUR19873057200370 | 1987-06-25T05:10 | 43.0000 | 41.0167 | 4.96 | 5.0 | ?19.030 | ?17.500 |
| UMUR19873057200370 | 1987-06-25T05:10 | 43.0000 | 41.0167 | 10.02 | 10.1 | 15.430 | 17.720 |
| UMUR19873057200370 | 1987-06-25T05:10 | 43.0000 | 41.0167 | 14.97 | 15.1 | 11.630 | 18.150 |
| UMUR19873057200370 | 1987-06-25T05:10 | 43.0000 | 41.0167 | 20.03 | 20.2 | 8.820 | 18.250 |
| UMUR19873057200370 | 1987-06-25T05:10 | 43.0000 | 41.0167 | 29.95 | 30.2 | 8.420 | 18.290 |
| UMUR19873057200370 | 1987-06-25T05:10 | 43.0000 | 41.0167 | 49.98 | 50.4 | 7.880 | 18.400 |
| UMUR19873057200370 | 1987-06-25T05:10 | 43.0000 | 41.0167 | 79.02 | 79.7 | 7.640 | 18.790 |
| UMUR19873057200380 | 1987-06-29T03:32 | 41.6500 | 41.6667 | 0.00 | 0.0 | 22.400 | 15.740 |
| UMUR19873057200380 | 1987-06-29T03:32 | 41.6500 | 41.6667 | 3.97 | 4.0 | 22.130 | 16.770 |
| UMUR19873057200390 | 1987-06-29T04:00 | 41.6667 | 41.6667 | 0.00 | 0.0 | 22.800 | 15.700 |
| UMUR19873057200390 | 1987-06-29T04:00 | 41.6667 | 41.6667 | 1.98 | 2.0 | 22.630 | 16.060 |
| UMUR19873057200400 | 1987-06-29T04:20 | 41.6500 | 41.6500 | 0.00 | 0.0 | 22.500 | 15.030 |
| UMUR19873057200400 | 1987-06-29T04:20 | 41.6500 | 41.6500 | 9.03 | 9.1 | 22.020 | 16.820 |
| UMUR19873087200010 | 1987-04-01T09:00 | 43.5817 | 39.7167 | 0.00 | 0.0 | 9.300 | 13.500 |
| UMUR19873087200010 | 1987-04-01T09:00 | 43.5817 | 39.7167 | 4.96 | 5.0 | 8.560 | 17.450 |
| UMUR19873087200020 | 1987-04-01T09:22 | 43.5667 | 39.7000 | 0.00 | 0.0 | 9.200 | 16.800 |
| UMUR19873087200020 | 1987-04-01T09:22 | 43.5667 | 39.7000 | 10.02 | 10.1 | 7.150 | 17.580 |
| UMUR19873087200030 | 1987-04-01T09:45 | 43.5667 | 39.7000 | 0.00 | 0.0 | 9.900 | 17.250 |
| UMUR19873087200030 | 1987-04-01T09:45 | 43.5667 | 39.7000 | 10.02 | 10.1 | 8.280 | 17.450 |
| UMUR19873087200030 | 1987-04-01T09:45 | 43.5667 | 39.7000 | 20.03 | 20.2 | 6.840 | 17.670 |
| UMUR19873087200040 | 1987-04-01T10:20 | 43.5667 | 39.7317 | 0.00 | 0.0 | 8.700 | 17.200 |
| UMUR19873087200040 | 1987-04-01T10:20 | 43.5667 | 39.7317 | 3.97 | 4.0 | 8.100 | 17.420 |
| UMUR19873087200050 | 1987-04-01T10:40 | 43.5667 | 39.7167 | 0.00 | 0.0 | 9.100 | 17.250 |
| UMUR19873087200050 | 1987-04-01T10:40 | 43.5667 | 39.7167 | 4.96 | 5.0 | 8.700 | 17.450 |
| UMUR19873087200060 | 1987-04-01T11:05 | 43.5817 | 39.7167 | 0.00 | 0.0 | 8.900 | 17.220 |
| UMUR19873087200060 | 1987-04-01T11:05 | 43.5817 | 39.7167 | 4.96 | 5.0 | 8.230 | 17.400 |
| UMUR19873087200070 | 1987-04-01T11:25 | 43.5817 | 39.7167 | 0.00 | 0.0 | 9.300 | 17.160 |
| UMUR19873087200070 | 1987-04-01T11:25 | 43.5817 | 39.7167 | 9.02 | 9.1 | 8.640 | 17.490 |
| UMUR19873087200080 | 1987-04-06T06:00 | 44.0817 | 39.0817 | 0.00 | 0.0 | 8.900 | 16.860 |
| UMUR19873087200080 | 1987-04-06T06:00 | 44.0817 | 39.0817 | 4.96 | 5.0 | 8.940 | 16.930 |
| UMUR19873087200090 | 1987-04-06T06:20 | 44.0817 | 39.0667 | 0.00 | 0.0 | 9.000 | 16.440 |
| UMUR19873087200090 | 1987-04-06T06:20 | 44.0817 | 39.0667 | 7.04 | 7.1 | 8.960 | 16.800 |
| UMUR19873087200100 | 1987-04-06T06:45 | 44.0817 | 39.0817 | 0.00 | 0.0 | 9.000 | 16.890 |
| UMUR19873087200100 | 1987-04-06T06:45 | 44.0817 | 39.0817 | 8.03 | 8.1 | 8.870 | 16.980 |
| UMUR19873087200110 | 1987-04-06T07:12 | 44.1000 | 39.0500 | 0.00 | 0.0 | 9.100 | 16.840 |
| UMUR19873087200110 | 1987-04-06T07:12 | 44.1000 | 39.0500 | 4.96 | 5.0 | 8.960 | 16.930 |
| UMUR19873087200120 | 1987-04-06T07:34 | 44.1000 | 39.0667 | 0.00 | 0.0 | 9.100 | 16.870 |
| UMUR19873087200120 | 1987-04-06T07:34 | 44.1000 | 39.0667 | 3.97 | 4.0 | 8.950 | 16.910 |
| UMUR19873087200130 | 1987-04-06T07:55 | 44.1000 | 39.0667 | 0.00 | 0.0 | 9.100 | 16.840 |
| UMUR19873087200130 | 1987-04-06T07:55 | 44.1000 | 39.0667 | 2.97 | 3.0 | 9.040 | 16.890 |
| UMUR19873087200140 | 1987-04-13T09:20 | 44.0667 | 39.0317 | 0.00 | 0.0 | 10.300 | 17.430 |
| UMUR19873087200140 | 1987-04-13T09:20 | 44.0667 | 39.0317 | 10.01 | 10.1 | 9.060 | 17.520 |
| UMUR19873087200140 | 1987-04-13T09:20 | 44.0667 | 39.0317 | 20.03 | 20.2 | 7.580 | 17.610 |
| UMUR19873087200140 | 1987-04-13T09:20 | 44.0667 | 39.0317 | 30.04 | 30.3 | 7.800 | 17.760 |
| UMUR19873087200140 | 1987-04-13T09:20 | 44.0667 | 39.0317 | 39.96 | 40.3 | 7.800 | 17.880 |
| UMUR19873087200150 | 1987-04-13T12:00 | 44.0667 | 39.0317 | 0.00 | 0.0 | 10.300 | 17.470 |
| UMUR19873087200150 | 1987-04-13T12:00 | 44.0667 | 39.0317 | 10.01 | 10.1 | 9.540 | 17.540 |
| UMUR19873087200150 | 1987-04-13T12:00 | 44.0667 | 39.0317 | 20.03 | 20.2 | 7.850 | 17.700 |
| UMUR19873087200150 | 1987-04-13T12:00 | 44.0667 | 39.0317 | 30.04 | 30.3 | 7.280 | 17.790 |
| UMUR19873087200150 | 1987-04-13T12:00 | 44.0667 | 39.0317 | 39.96 | 40.3 | 6.600 | 17.900 |
| UMUR19873087200160 | 1987-04-21T11:11 | 44.5667 | 38.0667 | 0.00 | 0.0 | 9.300 | 17.470 |
| UMUR19873087200170 | 1987-04-21T11:25 | 44.5667 | 38.0667 | 0.00 | 0.0 | 8.900 | 17.510 |
| UMUR19873087200180 | 1987-04-21T11:42 | 44.5817 | 38.0500 | 0.00 | 0.0 | 8.900 | 17.510 |
| UMUR19873087200190 | 1987-04-21T11:58 | 44.5817 | 38.0317 | 0.00 | 0.0 | 8.900 | 17.520 |
| UMUR19873087200200 | 1987-04-21T12:16 | 44.5667 | 38.0317 | 0.00 | 0.0 | 8.900 | 17.560 |
| UMUR19873087200210 | 1987-04-21T12:32 | 44.5667 | 38.0500 | 0.00 | 0.0 | 8.900 | 17.560 |
| UMUR19873087200220 | 1987-04-21T12:48 | 44.5500 | 38.0317 | 0.00 | 0.0 | 8.900 | 17.580 |
| UMUR19873087200230 | 1987-04-21T13:07 | 44.5317 | 38.0667 | 0.00 | 0.0 | 8.800 | 17.560 |
| UMUR19873087200240 | 1987-04-22T09:00 | 44.9000 | 37.3000 | 0.00 | 0.0 | 9.000 | 17.560 |
| UMUR19873087200250 | 1987-04-22T09:20 | 44.9000 | 37.3000 | 0.00 | 0.0 | 8.900 | 17.580 |
| UMUR19873087200260 | 1987-04-22T09:35 | 44.9000 | 37.2817 | 0.00 | 0.0 | 9.200 | 17.600 |
| UMUR19873087200270 | 1987-04-22T09:50 | 44.8817 | 37.3000 | 0.00 | 0.0 | 9.200 | 17.600 |
| UMUR19873087200280 | 1987-04-22T10:04 | 44.8667 | 37.3167 | 0.00 | 0.0 | 9.000 | 17.580 |
| UMUR19873087200290 | 1987-04-22T10:20 | 44.9000 | 37.2500 | 0.00 | 0.0 | 9.000 | 17.580 |
| UMUR19873087200300 | 1987-04-23T12:08 | 44.7317 | 37.8000 | 0.00 | 0.0 | 9.000 | 17.580 |
| UMUR19873087200310 | 1987-04-23T12:22 | 44.7167 | 37.8000 | 0.00 | 0.0 | 8.900 | 17.560 |
| UMUR19873087200320 | 1987-04-23T12:38 | 44.7167 | 37.8000 | 0.00 | 0.0 | 8.900 | 17.560 |
| UMUR19873087200330 | 1987-04-23T12:54 | 44.7000 | 37.8000 | 0.00 | 0.0 | 8.900 | 17.560 |
| UMUR19873087200340 | 1987-04-23T13:08 | 44.7000 | 37.8167 | 0.00 | 0.0 | 8.800 | 17.600 |
| UMUR19873087200350 | 1987-04-23T13:24 | 44.7317 | 37.8167 | 0.00 | 0.0 | 8.900 | 17.580 |
| UMUR19873087200360 | 1987-04-23T13:42 | 44.7000 | 37.8317 | 0.00 | 0.0 | 8.700 | 17.600 |
| UMUR19873087200370 | 1987-04-23T14:22 | 44.6667 | 37.8500 | 0.00 | 0.0 | 8.500 | 17.610 |
| UMUR19873087200380 | 1987-04-28T06:00 | 44.0667 | 39.0317 | 0.00 | 0.0 | 8.300 | 17.450 |
| UMUR19873087200380 | 1987-04-28T06:00 | 44.0667 | 39.0317 | 10.01 | 10.1 | 7.620 | 17.520 |
| UMUR19873087200380 | 1987-04-28T06:00 | 44.0667 | 39.0317 | 20.03 | 20.2 | 7.590 | 17.690 |
| UMUR19873087200380 | 1987-04-28T06:00 | 44.0667 | 39.0317 | 30.04 | 30.3 | 7.620 | 17.830 |
| UMUR19873087200380 | 1987-04-28T06:00 | 44.0667 | 39.0317 | 39.96 | 40.3 | 7.620 | 17.940 |
| UMUR19873087200390 | 1987-04-28T09:00 | 44.0667 | 39.0317 | 0.00 | 0.0 | 8.500 | 17.430 |
| UMUR19873087200390 | 1987-04-28T09:00 | 44.0667 | 39.0317 | 10.01 | 10.1 | 7.660 | 17.540 |
| UMUR19873087200390 | 1987-04-28T09:00 | 44.0667 | 39.0317 | 20.03 | 20.2 | 7.540 | 17.670 |
| UMUR19873087200390 | 1987-04-28T09:00 | 44.0667 | 39.0317 | 30.04 | 30.3 | 7.600 | 17.830 |
| UMUR19873087200390 | 1987-04-28T09:00 | 44.0667 | 39.0317 | 39.96 | 40.3 | 7.520 | 17.900 |
| UMUR19873087200400 | 1987-04-28T12:00 | 44.0667 | 39.0317 | 0.00 | 0.0 | 8.500 | 17.430 |
| UMUR19873087200400 | 1987-04-28T12:00 | 44.0667 | 39.0317 | 10.01 | 10.1 | 7.620 | 17.540 |
| UMUR19873087200400 | 1987-04-28T12:00 | 44.0667 | 39.0317 | 20.03 | 20.2 | 7.580 | 17.690 |
| UMUR19873087200400 | 1987-04-28T12:00 | 44.0667 | 39.0317 | 30.04 | 30.3 | 7.600 | 17.850 |
| UMUR19873087200400 | 1987-04-28T12:00 | 44.0667 | 39.0317 | 39.96 | 40.3 | 7.520 | 17.920 |
| UMUR19873087200410 | 1987-04-28T15:00 | 44.0667 | 39.0317 | 0.00 | 0.0 | 8.500 | 17.470 |
| UMUR19873087200410 | 1987-04-28T15:00 | 44.0667 | 39.0317 | 10.01 | 10.1 | 7.700 | 17.520 |
| UMUR19873087200410 | 1987-04-28T15:00 | 44.0667 | 39.0317 | 20.03 | 20.2 | 7.560 | 17.650 |
| UMUR19873087200410 | 1987-04-28T15:00 | 44.0667 | 39.0317 | 30.04 | 30.3 | 7.580 | 17.810 |
| UMUR19873087200410 | 1987-04-28T15:00 | 44.0667 | 39.0317 | 39.96 | 40.3 | 7.200 | 17.900 |
| UMUR19873087200420 | 1987-04-28T18:00 | 44.0667 | 39.0317 | 0.00 | 0.0 | 8.500 | 17.450 |
| UMUR19873087200420 | 1987-04-28T18:00 | 44.0667 | 39.0317 | 10.01 | 10.1 | 7.840 | 17.520 |
| UMUR19873087200420 | 1987-04-28T18:00 | 44.0667 | 39.0317 | 20.03 | 20.2 | 7.490 | 17.700 |
| UMUR19873087200420 | 1987-04-28T18:00 | 44.0667 | 39.0317 | 30.04 | 30.3 | 7.560 | 17.830 |
| UMUR19873087200420 | 1987-04-28T18:00 | 44.0667 | 39.0317 | 39.96 | 40.3 | 7.380 | 17.940 |
| UMUR19873087200430 | 1987-04-28T21:00 | 44.0667 | 39.0317 | 0.00 | 0.0 | 8.200 | 17.450 |
| UMUR19873087200430 | 1987-04-28T21:00 | 44.0667 | 39.0317 | 10.01 | 10.1 | 7.840 | 17.510 |
| UMUR19873087200430 | 1987-04-28T21:00 | 44.0667 | 39.0317 | 20.03 | 20.2 | 7.570 | 17.700 |
| UMUR19873087200430 | 1987-04-28T21:00 | 44.0667 | 39.0317 | 30.04 | 30.3 | 7.600 | 17.810 |
| UMUR19873087200430 | 1987-04-28T21:00 | 44.0667 | 39.0317 | 39.96 | 40.3 | 7.320 | 17.960 |
| UMUR19873087200440 | 1987-04-29T00:00 | 44.0667 | 39.0317 | 0.00 | 0.0 | 8.400 | 17.470 |
| UMUR19873087200440 | 1987-04-29T00:00 | 44.0667 | 39.0317 | 10.01 | 10.1 | 7.920 | 17.520 |
| UMUR19873087200440 | 1987-04-29T00:00 | 44.0667 | 39.0317 | 20.03 | 20.2 | 7.600 | 17.700 |
| UMUR19873087200440 | 1987-04-29T00:00 | 44.0667 | 39.0317 | 30.04 | 30.3 | 7.610 | 17.790 |
| UMUR19873087200440 | 1987-04-29T00:00 | 44.0667 | 39.0317 | 39.96 | 40.3 | 7.530 | 17.920 |
| UMUR19873087200450 | 1987-04-29T03:00 | 44.0667 | 39.0317 | 0.00 | 0.0 | 8.200 | 17.430 |
| UMUR19873087200450 | 1987-04-29T03:00 | 44.0667 | 39.0317 | 10.01 | 10.1 | 7.780 | 17.510 |
| UMUR19873087200450 | 1987-04-29T03:00 | 44.0667 | 39.0317 | 20.03 | 20.2 | 7.590 | 17.700 |
| UMUR19873087200450 | 1987-04-29T03:00 | 44.0667 | 39.0317 | 30.04 | 30.3 | 7.620 | 17.810 |
| UMUR19873087200450 | 1987-04-29T03:00 | 44.0667 | 39.0317 | 39.96 | 40.3 | 7.280 | 17.900 |
| UMUR19873087200460 | 1987-04-29T06:30 | 44.0667 | 39.0317 | 0.00 | 0.0 | 8.300 | 17.450 |
| UMUR19873087200460 | 1987-04-29T06:30 | 44.0667 | 39.0317 | 10.01 | 10.1 | 7.840 | 17.520 |
| UMUR19873087200460 | 1987-04-29T06:30 | 44.0667 | 39.0317 | 20.03 | 20.2 | 7.610 | 17.690 |
| UMUR19873087200460 | 1987-04-29T06:30 | 44.0667 | 39.0317 | 30.04 | 30.3 | 7.570 | 17.810 |
| UMUR19873087200460 | 1987-04-29T06:30 | 44.0667 | 39.0317 | 39.96 | 40.3 | 7.560 | 17.940 |
| UMUR19873087200470 | 1987-04-29T09:00 | 44.0667 | 39.0317 | 0.00 | 0.0 | 8.500 | 17.430 |
| UMUR19873087200470 | 1987-04-29T09:00 | 44.0667 | 39.0317 | 10.01 | 10.1 | 7.880 | 17.510 |
| UMUR19873087200470 | 1987-04-29T09:00 | 44.0667 | 39.0317 | 20.03 | 20.2 | 7.660 | 17.700 |
| UMUR19873087200470 | 1987-04-29T09:00 | 44.0667 | 39.0317 | 30.04 | 30.3 | 7.520 | 17.790 |
| UMUR19873087200470 | 1987-04-29T09:00 | 44.0667 | 39.0317 | 39.96 | 40.3 | 7.310 | 17.960 |
| UMUR19873087200480 | 1987-04-29T12:00 | 44.0667 | 39.0317 | 0.00 | 0.0 | 8.800 | 17.470 |
| UMUR19873087200480 | 1987-04-29T12:00 | 44.0667 | 39.0317 | 10.01 | 10.1 | 7.800 | 17.520 |
| UMUR19873087200480 | 1987-04-29T12:00 | 44.0667 | 39.0317 | 20.03 | 20.2 | 7.660 | 17.670 |
| UMUR19873087200480 | 1987-04-29T12:00 | 44.0667 | 39.0317 | 30.04 | 30.3 | 7.510 | 17.810 |
| UMUR19873087200480 | 1987-04-29T12:00 | 44.0667 | 39.0317 | 39.96 | 40.3 | 7.300 | 17.940 |
| UMUR19873087200490 | 1987-04-29T15:00 | 44.0667 | 39.0317 | 0.00 | 0.0 | 8.900 | 17.450 |
| UMUR19873087200490 | 1987-04-29T15:00 | 44.0667 | 39.0317 | 10.01 | 10.1 | 7.800 | 17.510 |
| UMUR19873087200490 | 1987-04-29T15:00 | 44.0667 | 39.0317 | 20.03 | 20.2 | 7.690 | 17.700 |
| UMUR19873087200490 | 1987-04-29T15:00 | 44.0667 | 39.0317 | 30.04 | 30.3 | 7.520 | 17.810 |
| UMUR19873087200490 | 1987-04-29T15:00 | 44.0667 | 39.0317 | 39.96 | 40.3 | 7.420 | 17.920 |
| UMUR19873087200500 | 1987-04-29T18:00 | 44.0667 | 39.0317 | 0.00 | 0.0 | 8.300 | 17.470 |
| UMUR19873087200500 | 1987-04-29T18:00 | 44.0667 | 39.0317 | 10.01 | 10.1 | 7.810 | 17.540 |
| UMUR19873087200500 | 1987-04-29T18:00 | 44.0667 | 39.0317 | 20.03 | 20.2 | 7.710 | 17.690 |
| UMUR19873087200500 | 1987-04-29T18:00 | 44.0667 | 39.0317 | 30.04 | 30.3 | 7.540 | 17.830 |
| UMUR19873087200500 | 1987-04-29T18:00 | 44.0667 | 39.0317 | 39.96 | 40.3 | 7.600 | 17.920 |
| UMUR19873087200510 | 1987-04-29T21:00 | 44.0667 | 39.0317 | 0.00 | 0.0 | 8.300 | 17.470 |
| UMUR19873087200510 | 1987-04-29T21:00 | 44.0667 | 39.0317 | 10.01 | 10.1 | 8.120 | 17.540 |
| UMUR19873087200510 | 1987-04-29T21:00 | 44.0667 | 39.0317 | 20.03 | 20.2 | 7.680 | 17.700 |
| UMUR19873087200510 | 1987-04-29T21:00 | 44.0667 | 39.0317 | 30.04 | 30.3 | 7.540 | 17.810 |
| UMUR19873087200510 | 1987-04-29T21:00 | 44.0667 | 39.0317 | 39.96 | 40.3 | 7.000 | 17.940 |
| UMUR19873087200520 | 1987-04-30T00:00 | 44.0667 | 39.0317 | 0.00 | 0.0 | 8.300 | 17.450 |
| UMUR19873087200520 | 1987-04-30T00:00 | 44.0667 | 39.0317 | 10.01 | 10.1 | 8.040 | 17.520 |
| UMUR19873087200520 | 1987-04-30T00:00 | 44.0667 | 39.0317 | 20.03 | 20.2 | 8.010 | 17.690 |
| UMUR19873087200520 | 1987-04-30T00:00 | 44.0667 | 39.0317 | 30.04 | 30.3 | 7.500 | 17.790 |
| UMUR19873087200520 | 1987-04-30T00:00 | 44.0667 | 39.0317 | 39.96 | 40.3 | 7.260 | 17.960 |
| UMUR19873087200530 | 1987-04-30T03:00 | 44.0667 | 39.0317 | 0.00 | 0.0 | 8.300 | 17.470 |
| UMUR19873087200530 | 1987-04-30T03:00 | 44.0667 | 39.0317 | 10.01 | 10.1 | 8.040 | 17.540 |
| UMUR19873087200530 | 1987-04-30T03:00 | 44.0667 | 39.0317 | 20.03 | 20.2 | 7.720 | 17.670 |
| UMUR19873087200530 | 1987-04-30T03:00 | 44.0667 | 39.0317 | 30.04 | 30.3 | 7.530 | 17.810 |
| UMUR19873087200530 | 1987-04-30T03:00 | 44.0667 | 39.0317 | 39.96 | 40.3 | 7.380 | 17.940 |
| UMUR19873087200540 | 1987-04-30T06:00 | 44.0667 | 39.0317 | 0.00 | 0.0 | 8.900 | 17.450 |
| UMUR19873087200540 | 1987-04-30T06:00 | 44.0667 | 39.0317 | 10.01 | 10.1 | 7.950 | 17.520 |
| UMUR19873087200540 | 1987-04-30T06:00 | 44.0667 | 39.0317 | 20.03 | 20.2 | 7.620 | 17.670 |
| UMUR19873087200540 | 1987-04-30T06:00 | 44.0667 | 39.0317 | 30.04 | 30.3 | 7.520 | 17.810 |
| UMUR19873087200540 | 1987-04-30T06:00 | 44.0667 | 39.0317 | 39.96 | 40.3 | 7.170 | 17.920 |
| UMUR19873087200550 | 1987-04-30T09:00 | 44.0667 | 39.0317 | 0.00 | 0.0 | 8.900 | 17.470 |
| UMUR19873087200550 | 1987-04-30T09:00 | 44.0667 | 39.0317 | 10.01 | 10.1 | 7.980 | 17.520 |
| UMUR19873087200550 | 1987-04-30T09:00 | 44.0667 | 39.0317 | 20.03 | 20.2 | 7.770 | 17.700 |
| UMUR19873087200550 | 1987-04-30T09:00 | 44.0667 | 39.0317 | 30.04 | 30.3 | 7.540 | 17.790 |
| UMUR19873087200550 | 1987-04-30T09:00 | 44.0667 | 39.0317 | 39.96 | 40.3 | 7.230 | 17.920 |
| UMUR19873087200560 | 1987-05-11T10:36 | 44.5667 | 38.0667 | 0.00 | 0.0 | 11.000 | 17.420 |
| UMUR19873087200570 | 1987-05-11T10:51 | 44.5667 | 38.0667 | 0.00 | 0.0 | 11.200 | 17.380 |
| UMUR19873087200580 | 1987-05-11T11:08 | 44.5817 | 38.0317 | 0.00 | 0.0 | 11.200 | 17.400 |
| UMUR19873087200590 | 1987-05-11T11:24 | 44.5667 | 38.0500 | 0.00 | 0.0 | 11.000 | 17.400 |
| UMUR19873087200600 | 1987-05-11T11:47 | 44.5500 | 38.0317 | 0.00 | 0.0 | 11.000 | 17.420 |
| UMUR19873087200610 | 1987-05-12T11:08 | 44.7317 | 37.8000 | 0.00 | 0.0 | 10.600 | 17.470 |
| UMUR19873087200620 | 1987-05-12T11:17 | 44.7000 | 37.8000 | 0.00 | 0.0 | 10.700 | 17.430 |
| UMUR19873087200630 | 1987-05-12T11:27 | 44.7000 | 37.8167 | 0.00 | 0.0 | 10.900 | 17.400 |
| UMUR19873087200640 | 1987-05-12T11:38 | 44.7000 | 37.8317 | 0.00 | 0.0 | 10.500 | 17.420 |
| UMUR19873087200650 | 1987-05-12T11:53 | 44.6667 | 37.8500 | 0.00 | 0.0 | 10.500 | 17.430 |
| UMUR19873087200660 | 1987-05-19T06:30 | 44.0667 | 39.0317 | 0.00 | 0.0 | 16.300 | 16.890 |
| UMUR19873087200660 | 1987-05-19T06:30 | 44.0667 | 39.0317 | 10.01 | 10.1 | ?10.700 | 17.110 |
| UMUR19873087200660 | 1987-05-19T06:30 | 44.0667 | 39.0317 | 20.03 | 20.2 | 7.190 | 17.310 |
| UMUR19873087200660 | 1987-05-19T06:30 | 44.0667 | 39.0317 | 30.04 | 30.3 | 6.110 | 17.520 |
| UMUR19873087200660 | 1987-05-19T06:30 | 44.0667 | 39.0317 | 39.96 | 40.3 | 5.980 | 17.760 |
| UMUR19873087200670 | 1987-05-19T09:10 | 44.0667 | 39.0317 | 0.00 | 0.0 | 17.200 | 16.860 |
| UMUR19873087200670 | 1987-05-19T09:10 | 44.0667 | 39.0317 | 10.01 | 10.1 | ?10.120 | 17.110 |
| UMUR19873087200670 | 1987-05-19T09:10 | 44.0667 | 39.0317 | 20.03 | 20.2 | 6.810 | 17.290 |
| UMUR19873087200670 | 1987-05-19T09:10 | 44.0667 | 39.0317 | 30.04 | 30.3 | 6.210 | 17.560 |
| UMUR19873087200670 | 1987-05-19T09:10 | 44.0667 | 39.0317 | 39.96 | 40.3 | 5.920 | 17.760 |
| UMUR19873087200680 | 1987-05-19T11:50 | 44.0667 | 39.0317 | 0.00 | 0.0 | 16.500 | 16.910 |
| UMUR19873087200680 | 1987-05-19T11:50 | 44.0667 | 39.0317 | 10.01 | 10.1 | ?9.860 | 17.090 |
| UMUR19873087200680 | 1987-05-19T11:50 | 44.0667 | 39.0317 | 20.03 | 20.2 | 6.800 | 17.290 |
| UMUR19873087200680 | 1987-05-19T11:50 | 44.0667 | 39.0317 | 30.04 | 30.3 | 6.220 | 17.540 |
| UMUR19873087200680 | 1987-05-19T11:50 | 44.0667 | 39.0317 | 39.96 | 40.3 | 5.920 | 17.720 |
| UMUR19873087200690 | 1987-05-19T14:50 | 44.0667 | 39.0317 | 0.00 | 0.0 | 16.800 | 16.910 |
| UMUR19873087200690 | 1987-05-19T14:50 | 44.0667 | 39.0317 | 10.01 | 10.1 | ?8.990 | 17.130 |
| UMUR19873087200690 | 1987-05-19T14:50 | 44.0667 | 39.0317 | 20.03 | 20.2 | 6.860 | 17.270 |
| UMUR19873087200690 | 1987-05-19T14:50 | 44.0667 | 39.0317 | 30.04 | 30.3 | 6.110 | 17.580 |
| UMUR19873087200690 | 1987-05-19T14:50 | 44.0667 | 39.0317 | 39.96 | 40.3 | 5.900 | 17.740 |
| UMUR19873087200700 | 1987-05-19T18:00 | 44.0667 | 39.0317 | 0.00 | 0.0 | 15.800 | 16.890 |
| UMUR19873087200700 | 1987-05-19T18:00 | 44.0667 | 39.0317 | 10.01 | 10.1 | ?9.570 | 17.090 |
| UMUR19873087200700 | 1987-05-19T18:00 | 44.0667 | 39.0317 | 20.03 | 20.2 | 7.180 | 17.310 |
| UMUR19873087200700 | 1987-05-19T18:00 | 44.0667 | 39.0317 | 30.04 | 30.3 | 6.080 | 17.540 |
| UMUR19873087200700 | 1987-05-19T18:00 | 44.0667 | 39.0317 | 39.96 | 40.3 | 5.920 | 17.760 |
| UMUR19873087200710 | 1987-05-19T21:00 | 44.0667 | 39.0317 | 0.00 | 0.0 | 15.800 | 16.860 |
| UMUR19873087200710 | 1987-05-19T21:00 | 44.0667 | 39.0317 | 10.01 | 10.1 | ?10.070 | 17.130 |
| UMUR19873087200710 | 1987-05-19T21:00 | 44.0667 | 39.0317 | 20.03 | 20.2 | 7.060 | 17.270 |
| UMUR19873087200710 | 1987-05-19T21:00 | 44.0667 | 39.0317 | 30.04 | 30.3 | 6.140 | 17.560 |
| UMUR19873087200710 | 1987-05-19T21:00 | 44.0667 | 39.0317 | 39.96 | 40.3 | 5.840 | 17.760 |
| UMUR19873087200720 | 1987-05-20T00:00 | 44.0667 | 39.0317 | 0.00 | 0.0 | 15.200 | 16.870 |
| UMUR19873087200720 | 1987-05-20T00:00 | 44.0667 | 39.0317 | 10.01 | 10.1 | ?9.890 | 17.130 |
| UMUR19873087200720 | 1987-05-20T00:00 | 44.0667 | 39.0317 | 20.03 | 20.2 | 7.500 | 17.310 |
| UMUR19873087200720 | 1987-05-20T00:00 | 44.0667 | 39.0317 | 30.04 | 30.3 | 6.060 | 17.540 |
| UMUR19873087200720 | 1987-05-20T00:00 | 44.0667 | 39.0317 | 39.96 | 40.3 | 5.880 | 17.780 |
| UMUR19873087200730 | 1987-05-20T03:00 | 44.0667 | 39.0317 | 0.00 | 0.0 | 15.200 | 16.890 |
| UMUR19873087200730 | 1987-05-20T03:00 | 44.0667 | 39.0317 | 10.01 | 10.1 | ?9.340 | 17.110 |
| UMUR19873087200730 | 1987-05-20T03:00 | 44.0667 | 39.0317 | 20.03 | 20.2 | 7.520 | 17.310 |
| UMUR19873087200730 | 1987-05-20T03:00 | 44.0667 | 39.0317 | 30.04 | 30.3 | 6.100 | 17.580 |
| UMUR19873087200730 | 1987-05-20T03:00 | 44.0667 | 39.0317 | 39.96 | 40.3 | 5.900 | 17.720 |
| UMUR19873087200740 | 1987-05-20T06:00 | 44.0667 | 39.0317 | 0.00 | 0.0 | 15.900 | 16.870 |
| UMUR19873087200740 | 1987-05-20T06:00 | 44.0667 | 39.0317 | 10.01 | 10.1 | ?9.440 | 17.070 |
| UMUR19873087200740 | 1987-05-20T06:00 | 44.0667 | 39.0317 | 20.03 | 20.2 | 7.880 | 17.290 |
| UMUR19873087200740 | 1987-05-20T06:00 | 44.0667 | 39.0317 | 30.04 | 30.3 | 6.740 | 17.560 |
| UMUR19873087200740 | 1987-05-20T06:00 | 44.0667 | 39.0317 | 39.96 | 40.3 | 6.150 | 17.760 |
| UMUR19873087200750 | 1987-05-20T09:00 | 44.0667 | 39.0317 | 0.00 | 0.0 | 15.900 | 16.860 |
| UMUR19873087200750 | 1987-05-20T09:00 | 44.0667 | 39.0317 | 10.01 | 10.1 | ?9.380 | 17.090 |
| UMUR19873087200750 | 1987-05-20T09:00 | 44.0667 | 39.0317 | 20.03 | 20.2 | 7.920 | 17.270 |
| UMUR19873087200750 | 1987-05-20T09:00 | 44.0667 | 39.0317 | 30.04 | 30.3 | 6.620 | 17.580 |
| UMUR19873087200750 | 1987-05-20T09:00 | 44.0667 | 39.0317 | 39.96 | 40.3 | 6.060 | 17.720 |
| UMUR19873087200760 | 1987-05-20T12:00 | 44.0667 | 39.0317 | 0.00 | 0.0 | 18.200 | 16.860 |
| UMUR19873087200760 | 1987-05-20T12:00 | 44.0667 | 39.0317 | 10.01 | 10.1 | ?9.570 | 17.090 |
| UMUR19873087200760 | 1987-05-20T12:00 | 44.0667 | 39.0317 | 20.03 | 20.2 | 7.430 | 17.310 |
| UMUR19873087200760 | 1987-05-20T12:00 | 44.0667 | 39.0317 | 30.04 | 30.3 | 6.790 | 17.540 |
| UMUR19873087200760 | 1987-05-20T12:00 | 44.0667 | 39.0317 | 39.96 | 40.3 | 5.940 | 17.740 |
| UMUR19873087200770 | 1987-05-20T15:00 | 44.0667 | 39.0317 | 0.00 | 0.0 | 17.100 | 16.910 |
| UMUR19873087200770 | 1987-05-20T15:00 | 44.0667 | 39.0317 | 10.01 | 10.1 | ?8.430 | 17.130 |
| UMUR19873087200770 | 1987-05-20T15:00 | 44.0667 | 39.0317 | 20.03 | 20.2 | 6.900 | 17.290 |
| UMUR19873087200770 | 1987-05-20T15:00 | 44.0667 | 39.0317 | 30.04 | 30.3 | 6.340 | 17.560 |
| UMUR19873087200770 | 1987-05-20T15:00 | 44.0667 | 39.0317 | 39.96 | 40.3 | 5.960 | 17.760 |
| UMUR19873087200780 | 1987-05-20T18:00 | 44.0667 | 39.0317 | 0.00 | 0.0 | 16.100 | 16.870 |
| UMUR19873087200780 | 1987-05-20T18:00 | 44.0667 | 39.0317 | 10.01 | 10.1 | ?8.710 | 17.090 |
| UMUR19873087200780 | 1987-05-20T18:00 | 44.0667 | 39.0317 | 20.03 | 20.2 | 7.020 | 17.310 |
| UMUR19873087200780 | 1987-05-20T18:00 | 44.0667 | 39.0317 | 30.04 | 30.3 | 6.150 | 17.540 |
| UMUR19873087200780 | 1987-05-20T18:00 | 44.0667 | 39.0317 | 39.96 | 40.3 | 5.780 | 17.720 |
| UMUR19873087200790 | 1987-05-20T21:00 | 44.0667 | 39.0317 | 0.00 | 0.0 | 15.800 | 16.890 |
| UMUR19873087200790 | 1987-05-20T21:00 | 44.0667 | 39.0317 | 10.01 | 10.1 | ?9.150 | 17.110 |
| UMUR19873087200790 | 1987-05-20T21:00 | 44.0667 | 39.0317 | 20.03 | 20.2 | 7.500 | 17.310 |
| UMUR19873087200790 | 1987-05-20T21:00 | 44.0667 | 39.0317 | 30.04 | 30.3 | 6.410 | 17.560 |
| UMUR19873087200790 | 1987-05-20T21:00 | 44.0667 | 39.0317 | 39.96 | 40.3 | 5.860 | 17.720 |
| UMUR19873087200800 | 1987-05-21T00:00 | 44.0667 | 39.0317 | 0.00 | 0.0 | 15.000 | 16.870 |
| UMUR19873087200800 | 1987-05-21T00:00 | 44.0667 | 39.0317 | 10.01 | 10.1 | ?8.780 | 17.090 |
| UMUR19873087200800 | 1987-05-21T00:00 | 44.0667 | 39.0317 | 20.03 | 20.2 | 6.860 | 17.310 |
| UMUR19873087200800 | 1987-05-21T00:00 | 44.0667 | 39.0317 | 30.04 | 30.3 | 6.070 | 17.580 |
| UMUR19873087200800 | 1987-05-21T00:00 | 44.0667 | 39.0317 | 39.96 | 40.3 | 5.930 | 17.740 |
| UMUR19873087200810 | 1987-05-21T03:00 | 44.0667 | 39.0317 | 0.00 | 0.0 | 14.900 | 16.890 |
| UMUR19873087200810 | 1987-05-21T03:00 | 44.0667 | 39.0317 | 10.01 | 10.1 | ?9.830 | 17.070 |
| UMUR19873087200810 | 1987-05-21T03:00 | 44.0667 | 39.0317 | 20.03 | 20.2 | 7.200 | 17.270 |
| UMUR19873087200810 | 1987-05-21T03:00 | 44.0667 | 39.0317 | 30.04 | 30.3 | 6.320 | 17.580 |
| UMUR19873087200810 | 1987-05-21T03:00 | 44.0667 | 39.0317 | 39.96 | 40.3 | 5.910 | 17.740 |
| UMUR19873087200820 | 1987-05-21T06:40 | 44.0667 | 39.0317 | 0.00 | 0.0 | 15.500 | 16.910 |
| UMUR19873087200820 | 1987-05-21T06:40 | 44.0667 | 39.0317 | 10.01 | 10.1 | 11.460 | 17.090 |
| UMUR19873087200820 | 1987-05-21T06:40 | 44.0667 | 39.0317 | 20.03 | 20.2 | 8.550 | 17.290 |
| UMUR19873087200820 | 1987-05-21T06:40 | 44.0667 | 39.0317 | 30.04 | 30.3 | 8.640 | 17.560 |
| UMUR19873087200820 | 1987-05-21T06:40 | 44.0667 | 39.0317 | 39.96 | 40.3 | 5.980 | 17.760 |
| UMUR19873087200830 | 1987-05-21T09:00 | 44.0667 | 39.0317 | 0.00 | 0.0 | 16.900 | 16.890 |
| UMUR19873087200830 | 1987-05-21T09:00 | 44.0667 | 39.0317 | 10.01 | 10.1 | 14.520 | 17.090 |
| UMUR19873087200830 | 1987-05-21T09:00 | 44.0667 | 39.0317 | 20.03 | 20.2 | 7.420 | 17.290 |
| UMUR19873087200830 | 1987-05-21T09:00 | 44.0667 | 39.0317 | 30.04 | 30.3 | 6.720 | 17.560 |
| UMUR19873087200830 | 1987-05-21T09:00 | 44.0667 | 39.0317 | 39.96 | 40.3 | 6.560 | 17.760 |
| UMUR19873087200840 | 1987-05-21T12:00 | 44.0667 | 39.0317 | 0.00 | 0.0 | 17.500 | 16.870 |
| UMUR19873087200840 | 1987-05-21T12:00 | 44.0667 | 39.0317 | 10.01 | 10.1 | 13.500 | 17.110 |
| UMUR19873087200840 | 1987-05-21T12:00 | 44.0667 | 39.0317 | 20.03 | 20.2 | 7.960 | 17.310 |
| UMUR19873087200840 | 1987-05-21T12:00 | 44.0667 | 39.0317 | 30.04 | 30.3 | 6.280 | 17.580 |
| UMUR19873087200840 | 1987-05-21T12:00 | 44.0667 | 39.0317 | 39.96 | 40.3 | 5.930 | 17.740 |
| UMUR19873087200850 | 1987-05-21T15:00 | 44.0667 | 39.0317 | 0.00 | 0.0 | 16.900 | 16.910 |
| UMUR19873087200850 | 1987-05-21T15:00 | 44.0667 | 39.0317 | 10.01 | 10.1 | ?11.540 | 17.070 |
| UMUR19873087200850 | 1987-05-21T15:00 | 44.0667 | 39.0317 | 20.03 | 20.2 | 8.280 | 17.310 |
| UMUR19873087200850 | 1987-05-21T15:00 | 44.0667 | 39.0317 | 30.04 | 30.3 | 6.420 | 17.580 |
| UMUR19873087200850 | 1987-05-21T15:00 | 44.0667 | 39.0317 | 39.96 | 40.3 | 6.030 | 17.760 |
| UMUR19873087200860 | 1987-05-21T18:00 | 44.0667 | 39.0317 | 0.00 | 0.0 | 15.500 | 16.910 |
| UMUR19873087200860 | 1987-05-21T18:00 | 44.0667 | 39.0317 | 10.01 | 10.1 | 13.460 | 17.110 |
| UMUR19873087200860 | 1987-05-21T18:00 | 44.0667 | 39.0317 | 20.03 | 20.2 | 7.490 | 17.310 |
| UMUR19873087200860 | 1987-05-21T18:00 | 44.0667 | 39.0317 | 30.04 | 30.3 | 6.530 | 17.580 |
| UMUR19873087200860 | 1987-05-21T18:00 | 44.0667 | 39.0317 | 39.96 | 40.3 | 6.000 | 17.740 |
| UMUR19873087200870 | 1987-05-21T21:00 | 44.0667 | 39.0317 | 0.00 | 0.0 | 15.700 | 16.890 |
| UMUR19873087200870 | 1987-05-21T21:00 | 44.0667 | 39.0317 | 10.01 | 10.1 | 12.940 | 17.090 |
| UMUR19873087200870 | 1987-05-21T21:00 | 44.0667 | 39.0317 | 20.03 | 20.2 | 7.400 | 17.290 |
| UMUR19873087200870 | 1987-05-21T21:00 | 44.0667 | 39.0317 | 30.04 | 30.3 | 6.460 | 17.560 |
| UMUR19873087200870 | 1987-05-21T21:00 | 44.0667 | 39.0317 | 39.96 | 40.3 | 6.010 | 17.760 |
| UMUR19873087200880 | 1987-05-22T00:00 | 44.0667 | 39.0317 | 0.00 | 0.0 | 16.200 | 16.910 |
| UMUR19873087200880 | 1987-05-22T00:00 | 44.0667 | 39.0317 | 10.01 | 10.1 | 12.690 | 17.110 |
| UMUR19873087200880 | 1987-05-22T00:00 | 44.0667 | 39.0317 | 20.03 | 20.2 | 7.190 | 17.310 |
| UMUR19873087200880 | 1987-05-22T00:00 | 44.0667 | 39.0317 | 30.04 | 30.3 | 6.250 | 17.580 |
| UMUR19873087200880 | 1987-05-22T00:00 | 44.0667 | 39.0317 | 39.96 | 40.3 | 5.960 | 17.760 |
| UMUR19873087200890 | 1987-05-22T03:00 | 44.0667 | 39.0317 | 0.00 | 0.0 | 16.000 | 16.910 |
| UMUR19873087200890 | 1987-05-22T03:00 | 44.0667 | 39.0317 | 10.01 | 10.1 | 11.230 | 17.110 |
| UMUR19873087200890 | 1987-05-22T03:00 | 44.0667 | 39.0317 | 20.03 | 20.2 | 8.080 | 17.310 |
| UMUR19873087200890 | 1987-05-22T03:00 | 44.0667 | 39.0317 | 30.04 | 30.3 | 6.540 | 17.580 |
| UMUR19873087200890 | 1987-05-22T03:00 | 44.0667 | 39.0317 | 39.96 | 40.3 | 6.000 | 17.740 |
| UMUR19873087200900 | 1987-05-26T06:03 | 44.0817 | 39.0817 | 0.00 | 0.0 | 15.500 | 16.690 |
| UMUR19873087200900 | 1987-05-26T06:03 | 44.0817 | 39.0817 | 4.96 | 5.0 | 15.340 | 16.710 |
| UMUR19873087200910 | 1987-05-26T06:23 | 44.0817 | 39.0667 | 0.00 | 0.0 | 15.700 | 16.640 |
| UMUR19873087200910 | 1987-05-26T06:23 | 44.0817 | 39.0667 | 8.03 | 8.1 | 15.440 | 16.730 |
| UMUR19873087200920 | 1987-05-26T06:50 | 44.0817 | 39.0817 | 0.00 | 0.0 | 15.100 | 16.660 |
| UMUR19873087200920 | 1987-05-26T06:50 | 44.0817 | 39.0817 | 9.02 | 9.1 | 15.200 | 16.750 |
| UMUR19873087200930 | 1987-05-26T07:13 | 44.1000 | 39.0500 | 0.00 | 0.0 | 15.100 | 16.660 |
| UMUR19873087200930 | 1987-05-26T07:13 | 44.1000 | 39.0500 | 4.96 | 5.0 | 14.910 | 16.690 |
| UMUR19873087200940 | 1987-05-26T07:42 | 44.1000 | 39.0667 | 0.00 | 0.0 | 15.300 | 16.670 |
| UMUR19873087200940 | 1987-05-26T07:42 | 44.1000 | 39.0667 | 4.96 | 5.0 | 14.820 | 16.710 |
| UMUR19873087200950 | 1987-05-26T08:10 | 44.1000 | 39.0667 | 0.00 | 0.0 | 15.300 | 16.660 |
| UMUR19873087200950 | 1987-05-26T08:10 | 44.1000 | 39.0667 | 3.97 | 4.0 | 14.930 | 16.710 |
| UMUR19873087200960 | 1987-05-28T09:58 | 43.5817 | 39.7167 | 0.00 | 0.0 | 10.200 | 9.790 |
| UMUR19873087200960 | 1987-05-28T09:58 | 43.5817 | 39.7167 | 4.96 | 5.0 | 9.700 | 14.180 |
| UMUR19873087200970 | 1987-05-28T10:20 | 43.5667 | 39.7000 | 0.00 | 0.0 | 15.600 | 13.170 |
| UMUR19873087200970 | 1987-05-28T10:20 | 43.5667 | 39.7000 | 10.02 | 10.1 | 10.800 | 16.980 |
| UMUR19873087200980 | 1987-05-28T10:40 | 43.5667 | 39.7000 | 0.00 | 0.0 | 16.300 | 16.760 |
| UMUR19873087200980 | 1987-05-28T10:40 | 43.5667 | 39.7000 | 10.02 | 10.1 | ?10.320 | 17.000 |
| UMUR19873087200980 | 1987-05-28T10:40 | 43.5667 | 39.7000 | 20.03 | 20.2 | 7.900 | 17.310 |
| UMUR19873087200990 | 1987-05-28T11:30 | 43.5667 | 39.7317 | 0.00 | 0.0 | 13.900 | 16.670 |
| UMUR19873087200990 | 1987-05-28T11:30 | 43.5667 | 39.7317 | 3.97 | 4.0 | 11.890 | 16.780 |
| UMUR19873087201000 | 1987-05-28T11:50 | 43.5667 | 39.7167 | 0.00 | 0.0 | 13.400 | 16.710 |
| UMUR19873087201000 | 1987-05-28T11:50 | 43.5667 | 39.7167 | 3.97 | 4.0 | 11.300 | 16.760 |
| UMUR19873087201010 | 1987-05-28T12:10 | 43.5817 | 39.7167 | 0.00 | 0.0 | 14.600 | 16.730 |
| UMUR19873087201010 | 1987-05-28T12:10 | 43.5817 | 39.7167 | 5.95 | 6.0 | 11.880 | 16.860 |
| UMUR19873087201020 | 1987-05-28T12:38 | 43.5817 | 39.7167 | 0.00 | 0.0 | 12.700 | 16.690 |
| UMUR19873087201020 | 1987-05-28T12:38 | 43.5817 | 39.7167 | 8.03 | 8.1 | 12.020 | 16.960 |
| UMUR19873087201030 | 1987-06-10T04:25 | 44.0817 | 39.0817 | 0.00 | 0.0 | 15.800 | 15.120 |
| UMUR19873087201030 | 1987-06-10T04:25 | 44.0817 | 39.0817 | 4.96 | 5.0 | 13.210 | 16.840 |
| UMUR19873087201040 | 1987-06-10T05:15 | 44.0817 | 39.0667 | 0.00 | 0.0 | 15.400 | 16.530 |
| UMUR19873087201040 | 1987-06-10T05:15 | 44.0817 | 39.0667 | 8.03 | 8.1 | 13.280 | 17.020 |
| UMUR19873087201050 | 1987-06-10T05:45 | 44.0817 | 39.0817 | 0.00 | 0.0 | 15.900 | 16.570 |
| UMUR19873087201050 | 1987-06-10T05:45 | 44.0817 | 39.0817 | 8.03 | 8.1 | 12.840 | 16.980 |
| UMUR19873087201060 | 1987-06-10T06:20 | 44.1000 | 39.0500 | 0.00 | 0.0 | 15.300 | 16.080 |
| UMUR19873087201060 | 1987-06-10T06:20 | 44.1000 | 39.0500 | 4.96 | 5.0 | 13.720 | 16.260 |
| UMUR19873087201070 | 1987-06-10T06:45 | 44.1000 | 39.0667 | 0.00 | 0.0 | 15.700 | 16.480 |
| UMUR19873087201070 | 1987-06-10T06:45 | 44.1000 | 39.0667 | 4.96 | 5.0 | 14.690 | 16.660 |
| UMUR19873087201080 | 1987-06-10T07:10 | 44.1000 | 39.0667 | 0.00 | 0.0 | 15.700 | 16.440 |
| UMUR19873087201080 | 1987-06-10T07:10 | 44.1000 | 39.0667 | 3.97 | 4.0 | 14.680 | 16.620 |
| UMUR19873087201090 | 1987-06-13T10:10 | 43.5817 | 39.7167 | 0.00 | 0.0 | 18.900 | 8.040 |
| UMUR19873087201090 | 1987-06-13T10:10 | 43.5817 | 39.7167 | 4.96 | 5.0 | 16.180 | 15.590 |
| UMUR19873087201100 | 1987-06-13T10:50 | 43.5667 | 39.7000 | 0.00 | 0.0 | 18.800 | 13.820 |
| UMUR19873087201100 | 1987-06-13T10:50 | 43.5667 | 39.7000 | 10.02 | 10.1 | 12.080 | 17.230 |
| UMUR19873087201110 | 1987-06-13T11:10 | 43.5667 | 39.7000 | 0.00 | 0.0 | 18.700 | 14.000 |
| UMUR19873087201110 | 1987-06-13T11:10 | 43.5667 | 39.7000 | 10.02 | 10.1 | ?12.700 | ?17.090 |
| UMUR19873087201110 | 1987-06-13T11:10 | 43.5667 | 39.7000 | 20.03 | 20.2 | 8.440 | 17.610 |
| UMUR19873087201120 | 1987-06-13T11:55 | 43.5667 | 39.7317 | 0.00 | 0.0 | 19.500 | 14.900 |
| UMUR19873087201120 | 1987-06-13T11:55 | 43.5667 | 39.7317 | 3.97 | 4.0 | 19.260 | 15.010 |
| UMUR19873087201130 | 1987-06-13T12:22 | 43.5667 | 39.7167 | 0.00 | 0.0 | 19.300 | 14.940 |
| UMUR19873087201130 | 1987-06-13T12:22 | 43.5667 | 39.7167 | 4.96 | 5.0 | 17.140 | 15.160 |
| UMUR19873087201140 | 1987-06-13T12:40 | 43.5817 | 39.7167 | 0.00 | 0.0 | 19.100 | 14.920 |
| UMUR19873087201140 | 1987-06-13T12:40 | 43.5817 | 39.7167 | 5.95 | 6.0 | 16.160 | 15.210 |
| UMUR19873087201150 | 1987-06-13T13:00 | 43.5817 | 39.7167 | 0.00 | 0.0 | 18.500 | 14.920 |
| UMUR19873087201150 | 1987-06-13T13:00 | 43.5817 | 39.7167 | 8.03 | 8.1 | 16.630 | 15.480 |
| UMUR19873087201160 | 1987-06-18T06:00 | 44.0667 | 39.0317 | 0.00 | 0.0 | 20.800 | 16.870 |
| UMUR19873087201160 | 1987-06-18T06:00 | 44.0667 | 39.0317 | 10.01 | 10.1 | ?13.610 | 17.250 |
| UMUR19873087201160 | 1987-06-18T06:00 | 44.0667 | 39.0317 | 20.03 | 20.2 | 8.140 | 17.670 |
| UMUR19873087201160 | 1987-06-18T06:00 | 44.0667 | 39.0317 | 30.04 | 30.3 | 7.060 | 17.850 |
| UMUR19873087201160 | 1987-06-18T06:00 | 44.0667 | 39.0317 | 39.96 | 40.3 | 6.740 | 17.960 |
| UMUR19873087201170 | 1987-06-18T09:00 | 44.0667 | 39.0317 | 0.00 | 0.0 | 21.000 | 16.910 |
| UMUR19873087201170 | 1987-06-18T09:00 | 44.0667 | 39.0317 | 10.01 | 10.1 | ?13.320 | 17.310 |
| UMUR19873087201170 | 1987-06-18T09:00 | 44.0667 | 39.0317 | 20.03 | 20.2 | 7.860 | 17.650 |
| UMUR19873087201170 | 1987-06-18T09:00 | 44.0667 | 39.0317 | 30.04 | 30.3 | 7.280 | 17.790 |
| UMUR19873087201170 | 1987-06-18T09:00 | 44.0667 | 39.0317 | 39.96 | 40.3 | 6.160 | 17.960 |
| UMUR19873087201180 | 1987-06-18T12:00 | 44.0667 | 39.0317 | 0.00 | 0.0 | 21.100 | 16.910 |
| UMUR19873087201180 | 1987-06-18T12:00 | 44.0667 | 39.0317 | 10.01 | 10.1 | ?13.420 | 17.270 |
| UMUR19873087201180 | 1987-06-18T12:00 | 44.0667 | 39.0317 | 20.03 | 20.2 | 7.700 | 17.610 |
| UMUR19873087201180 | 1987-06-18T12:00 | 44.0667 | 39.0317 | 30.04 | 30.3 | 7.320 | 17.830 |
| UMUR19873087201180 | 1987-06-18T12:00 | 44.0667 | 39.0317 | 39.96 | 40.3 | 6.230 | 18.030 |
| UMUR19873087201190 | 1987-06-18T15:00 | 44.0667 | 39.0317 | 0.00 | 0.0 | 20.800 | 16.890 |
| UMUR19873087201190 | 1987-06-18T15:00 | 44.0667 | 39.0317 | 10.01 | 10.1 | ?14.600 | 17.250 |
| UMUR19873087201190 | 1987-06-18T15:00 | 44.0667 | 39.0317 | 20.03 | 20.2 | 7.760 | 17.690 |
| UMUR19873087201190 | 1987-06-18T15:00 | 44.0667 | 39.0317 | 30.04 | 30.3 | 7.320 | 17.880 |
| UMUR19873087201190 | 1987-06-18T15:00 | 44.0667 | 39.0317 | 39.96 | 40.3 | 6.350 | 17.980 |
| UMUR19873087201200 | 1987-06-18T18:00 | 44.0667 | 39.0317 | 0.00 | 0.0 | 20.100 | 16.870 |
| UMUR19873087201200 | 1987-06-18T18:00 | 44.0667 | 39.0317 | 10.01 | 10.1 | ?13.600 | 17.230 |
| UMUR19873087201200 | 1987-06-18T18:00 | 44.0667 | 39.0317 | 20.03 | 20.2 | 7.690 | 17.650 |
| UMUR19873087201200 | 1987-06-18T18:00 | 44.0667 | 39.0317 | 30.04 | 30.3 | 7.130 | 17.850 |
| UMUR19873087201200 | 1987-06-18T18:00 | 44.0667 | 39.0317 | 39.96 | 40.3 | 6.000 | 18.010 |
| UMUR19873087201210 | 1987-06-18T21:00 | 44.0667 | 39.0317 | 0.00 | 0.0 | 19.700 | 16.930 |
| UMUR19873087201210 | 1987-06-18T21:00 | 44.0667 | 39.0317 | 10.01 | 10.1 | ?11.720 | 17.270 |
| UMUR19873087201210 | 1987-06-18T21:00 | 44.0667 | 39.0317 | 20.03 | 20.2 | 7.520 | 17.650 |
| UMUR19873087201210 | 1987-06-18T21:00 | 44.0667 | 39.0317 | 30.04 | 30.3 | 7.010 | 17.810 |
| UMUR19873087201210 | 1987-06-18T21:00 | 44.0667 | 39.0317 | 39.96 | 40.3 | 5.990 | 17.980 |
| UMUR19873087201220 | 1987-06-19T00:00 | 44.0667 | 39.0317 | 0.00 | 0.0 | 19.800 | 16.890 |
| UMUR19873087201220 | 1987-06-19T00:00 | 44.0667 | 39.0317 | 10.01 | 10.1 | 15.440 | 17.250 |
| UMUR19873087201220 | 1987-06-19T00:00 | 44.0667 | 39.0317 | 20.03 | 20.2 | 7.730 | 17.670 |
| UMUR19873087201220 | 1987-06-19T00:00 | 44.0667 | 39.0317 | 30.04 | 30.3 | 7.080 | 17.830 |
| UMUR19873087201220 | 1987-06-19T00:00 | 44.0667 | 39.0317 | 39.96 | 40.3 | 6.140 | 17.990 |
| UMUR19873087201230 | 1987-06-19T03:00 | 44.0667 | 39.0317 | 0.00 | 0.0 | 19.200 | 16.870 |
| UMUR19873087201230 | 1987-06-19T03:00 | 44.0667 | 39.0317 | 10.01 | 10.1 | 18.140 | 17.230 |
| UMUR19873087201230 | 1987-06-19T03:00 | 44.0667 | 39.0317 | 20.03 | 20.2 | 8.040 | 17.650 |
| UMUR19873087201230 | 1987-06-19T03:00 | 44.0667 | 39.0317 | 30.04 | 30.3 | 7.430 | 17.850 |
| UMUR19873087201230 | 1987-06-19T03:00 | 44.0667 | 39.0317 | 39.96 | 40.3 | 6.360 | 18.010 |
| UMUR19873087201240 | 1987-06-19T06:40 | 44.0667 | 39.0317 | 0.00 | 0.0 | 19.900 | 16.910 |
| UMUR19873087201240 | 1987-06-19T06:40 | 44.0667 | 39.0317 | 10.01 | 10.1 | 18.580 | 17.250 |
| UMUR19873087201240 | 1987-06-19T06:40 | 44.0667 | 39.0317 | 20.03 | 20.2 | 8.100 | 17.610 |
| UMUR19873087201240 | 1987-06-19T06:40 | 44.0667 | 39.0317 | 30.04 | 30.3 | 7.180 | 17.830 |
| UMUR19873087201240 | 1987-06-19T06:40 | 44.0667 | 39.0317 | 39.96 | 40.3 | 6.340 | 18.010 |
| UMUR19873087201250 | 1987-06-19T09:00 | 44.0667 | 39.0317 | 0.00 | 0.0 | 20.700 | 16.870 |
| UMUR19873087201250 | 1987-06-19T09:00 | 44.0667 | 39.0317 | 10.01 | 10.1 | 18.340 | 17.220 |
| UMUR19873087201250 | 1987-06-19T09:00 | 44.0667 | 39.0317 | 20.03 | 20.2 | 8.020 | 17.610 |
| UMUR19873087201250 | 1987-06-19T09:00 | 44.0667 | 39.0317 | 30.04 | 30.3 | 7.180 | 17.810 |
| UMUR19873087201250 | 1987-06-19T09:00 | 44.0667 | 39.0317 | 39.96 | 40.3 | 6.430 | 18.030 |
| UMUR19873087201260 | 1987-06-19T12:00 | 44.0667 | 39.0317 | 0.00 | 0.0 | 18.900 | 16.130 |
| UMUR19873087201260 | 1987-06-19T12:00 | 44.0667 | 39.0317 | 10.01 | 10.1 | 17.100 | ?17.230 |
| UMUR19873087201260 | 1987-06-19T12:00 | 44.0667 | 39.0317 | 20.03 | 20.2 | 7.970 | 17.650 |
| UMUR19873087201260 | 1987-06-19T12:00 | 44.0667 | 39.0317 | 30.04 | 30.3 | 7.200 | 17.810 |
| UMUR19873087201260 | 1987-06-19T12:00 | 44.0667 | 39.0317 | 39.96 | 40.3 | 6.560 | 18.010 |
| UMUR19873087201270 | 1987-06-19T15:00 | 44.0667 | 39.0317 | 0.00 | 0.0 | 19.900 | 16.890 |
| UMUR19873087201270 | 1987-06-19T15:00 | 44.0667 | 39.0317 | 10.01 | 10.1 | ?12.990 | 17.220 |
| UMUR19873087201270 | 1987-06-19T15:00 | 44.0667 | 39.0317 | 20.03 | 20.2 | 7.960 | 17.610 |
| UMUR19873087201270 | 1987-06-19T15:00 | 44.0667 | 39.0317 | 30.04 | 30.3 | 7.160 | 17.830 |
| UMUR19873087201270 | 1987-06-19T15:00 | 44.0667 | 39.0317 | 39.96 | 40.3 | 6.380 | 17.990 |
| UMUR19873087201280 | 1987-06-19T18:00 | 44.0667 | 39.0317 | 0.00 | 0.0 | 19.600 | 16.950 |
| UMUR19873087201280 | 1987-06-19T18:00 | 44.0667 | 39.0317 | 10.01 | 10.1 | 17.750 | 17.230 |
| UMUR19873087201280 | 1987-06-19T18:00 | 44.0667 | 39.0317 | 20.03 | 20.2 | 8.110 | 17.630 |
| UMUR19873087201280 | 1987-06-19T18:00 | 44.0667 | 39.0317 | 30.04 | 30.3 | 7.140 | 17.810 |
| UMUR19873087201280 | 1987-06-19T18:00 | 44.0667 | 39.0317 | 39.96 | 40.3 | 6.450 | 18.030 |
| UMUR19873087201290 | 1987-06-19T21:00 | 44.0667 | 39.0317 | 0.00 | 0.0 | 19.500 | 16.910 |
| UMUR19873087201290 | 1987-06-19T21:00 | 44.0667 | 39.0317 | 10.01 | 10.1 | 18.110 | 17.270 |
| UMUR19873087201290 | 1987-06-19T21:00 | 44.0667 | 39.0317 | 20.03 | 20.2 | 7.960 | 17.650 |
| UMUR19873087201290 | 1987-06-19T21:00 | 44.0667 | 39.0317 | 30.04 | 30.3 | 7.180 | 17.830 |
| UMUR19873087201290 | 1987-06-19T21:00 | 44.0667 | 39.0317 | 39.96 | 40.3 | 6.660 | 18.030 |
| UMUR19873087201300 | 1987-06-20T00:00 | 44.0667 | 39.0317 | 0.00 | 0.0 | 19.700 | 16.890 |
| UMUR19873087201300 | 1987-06-20T00:00 | 44.0667 | 39.0317 | 10.01 | 10.1 | 17.570 | 17.250 |
| UMUR19873087201300 | 1987-06-20T00:00 | 44.0667 | 39.0317 | 20.03 | 20.2 | 7.890 | 17.610 |
| UMUR19873087201300 | 1987-06-20T00:00 | 44.0667 | 39.0317 | 30.04 | 30.3 | 7.020 | 17.830 |
| UMUR19873087201300 | 1987-06-20T00:00 | 44.0667 | 39.0317 | 39.96 | 40.3 | 6.500 | 17.980 |
| UMUR19873087201310 | 1987-06-20T03:00 | 44.0667 | 39.0317 | 0.00 | 0.0 | 19.200 | 16.910 |
| UMUR19873087201310 | 1987-06-20T03:00 | 44.0667 | 39.0317 | 10.01 | 10.1 | 16.440 | 17.220 |
| UMUR19873087201310 | 1987-06-20T03:00 | 44.0667 | 39.0317 | 20.03 | 20.2 | 8.160 | 17.630 |
| UMUR19873087201310 | 1987-06-20T03:00 | 44.0667 | 39.0317 | 30.04 | 30.3 | 6.990 | 17.830 |
| UMUR19873087201310 | 1987-06-20T03:00 | 44.0667 | 39.0317 | 39.96 | 40.3 | 6.510 | 17.990 |
| UMUR19873087201320 | 1987-06-20T06:00 | 44.0667 | 39.0317 | 0.00 | 0.0 | 18.700 | 16.930 |
| UMUR19873087201320 | 1987-06-20T06:00 | 44.0667 | 39.0317 | 10.01 | 10.1 | 16.780 | 17.230 |
| UMUR19873087201320 | 1987-06-20T06:00 | 44.0667 | 39.0317 | 20.03 | 20.2 | 8.140 | 17.650 |
| UMUR19873087201320 | 1987-06-20T06:00 | 44.0667 | 39.0317 | 30.04 | 30.3 | 7.180 | 17.850 |
| UMUR19873087201320 | 1987-06-20T06:00 | 44.0667 | 39.0317 | 39.96 | 40.3 | 6.530 | 18.010 |
| UMUR19873087201330 | 1987-06-20T09:00 | 44.0667 | 39.0317 | 0.00 | 0.0 | 19.400 | 16.870 |
| UMUR19873087201330 | 1987-06-20T09:00 | 44.0667 | 39.0317 | 10.01 | 10.1 | ?12.670 | 17.220 |
| UMUR19873087201330 | 1987-06-20T09:00 | 44.0667 | 39.0317 | 20.03 | 20.2 | 8.380 | 17.670 |
| UMUR19873087201330 | 1987-06-20T09:00 | 44.0667 | 39.0317 | 30.04 | 30.3 | 7.200 | 17.810 |
| UMUR19873087201330 | 1987-06-20T09:00 | 44.0667 | 39.0317 | 39.96 | 40.3 | 6.760 | 17.990 |
| UMUR19873087201340 | 1987-06-20T12:00 | 44.0667 | 39.0317 | 0.00 | 0.0 | 19.700 | 16.910 |
| UMUR19873087201340 | 1987-06-20T12:00 | 44.0667 | 39.0317 | 10.01 | 10.1 | ?13.380 | 17.230 |
| UMUR19873087201340 | 1987-06-20T12:00 | 44.0667 | 39.0317 | 20.03 | 20.2 | 7.580 | 17.630 |
| UMUR19873087201340 | 1987-06-20T12:00 | 44.0667 | 39.0317 | 30.04 | 30.3 | 6.900 | 17.790 |
| UMUR19873087201340 | 1987-06-20T12:00 | 44.0667 | 39.0317 | 39.96 | 40.3 | 6.740 | 17.900 |
| UMUR19873087201350 | 1987-06-20T15:00 | 44.0667 | 39.0317 | 0.00 | 0.0 | 19.700 | 16.890 |
| UMUR19873087201350 | 1987-06-20T15:00 | 44.0667 | 39.0317 | 10.01 | 10.1 | ?13.980 | 17.220 |
| UMUR19873087201350 | 1987-06-20T15:00 | 44.0667 | 39.0317 | 20.03 | 20.2 | 7.660 | 17.650 |
| UMUR19873087201350 | 1987-06-20T15:00 | 44.0667 | 39.0317 | 30.04 | 30.3 | 6.840 | 17.810 |
| UMUR19873087201350 | 1987-06-20T15:00 | 44.0667 | 39.0317 | 39.96 | 40.3 | 6.570 | 17.990 |
| UMUR19873087201360 | 1987-06-30T06:00 | 44.0667 | 39.0317 | 0.00 | 0.0 | 21.700 | 16.980 |
| UMUR19873087201360 | 1987-06-30T06:00 | 44.0667 | 39.0317 | 4.96 | 5.0 | 21.020 | 17.090 |
| UMUR19873087201360 | 1987-06-30T06:00 | 44.0667 | 39.0317 | 10.01 | 10.1 | ?15.620 | 17.130 |
| UMUR19873087201360 | 1987-06-30T06:00 | 44.0667 | 39.0317 | 12.00 | 12.1 | 9.860 | 17.180 |
| UMUR19873087201360 | 1987-06-30T06:00 | 44.0667 | 39.0317 | 14.97 | 15.1 | 9.740 | 17.200 |
| UMUR19873087201360 | 1987-06-30T06:00 | 44.0667 | 39.0317 | 20.03 | 20.2 | 8.780 | 17.580 |
| UMUR19873087201360 | 1987-06-30T06:00 | 44.0667 | 39.0317 | 30.04 | 30.3 | 7.510 | 17.780 |
| UMUR19873087201360 | 1987-06-30T06:00 | 44.0667 | 39.0317 | 39.96 | 40.3 | 6.920 | 17.980 |
| UMUR19873087201370 | 1987-06-30T09:00 | 44.0667 | 39.0317 | 0.00 | 0.0 | 21.700 | 16.950 |
| UMUR19873087201370 | 1987-06-30T09:00 | 44.0667 | 39.0317 | 4.96 | 5.0 | ?18.640 | |
| UMUR19873087201370 | 1987-06-30T09:00 | 44.0667 | 39.0317 | 7.04 | 7.1 | ?15.280 | 17.110 |
| UMUR19873087201370 | 1987-06-30T09:00 | 44.0667 | 39.0317 | 10.01 | 10.1 | 11.780 | 17.090 |
| UMUR19873087201370 | 1987-06-30T09:00 | 44.0667 | 39.0317 | 12.00 | 12.1 | 10.080 | |
| UMUR19873087201370 | 1987-06-30T09:00 | 44.0667 | 39.0317 | 14.97 | 15.1 | 9.760 | 17.180 |
| UMUR19873087201370 | 1987-06-30T09:00 | 44.0667 | 39.0317 | 20.03 | 20.2 | 8.420 | 17.610 |
| UMUR19873087201370 | 1987-06-30T09:00 | 44.0667 | 39.0317 | 30.04 | 30.3 | 7.400 | 17.760 |
| UMUR19873087201370 | 1987-06-30T09:00 | 44.0667 | 39.0317 | 39.96 | 40.3 | 6.940 | 17.990 |
| UMUR19873087201380 | 1987-06-30T12:00 | 44.0667 | 39.0317 | 0.00 | 0.0 | 22.400 | 16.950 |
| UMUR19873087201380 | 1987-06-30T12:00 | 44.0667 | 39.0317 | 7.04 | 7.1 | ?17.390 | 17.090 |
| UMUR19873087201380 | 1987-06-30T12:00 | 44.0667 | 39.0317 | 10.01 | 10.1 | 11.810 | 17.110 |
| UMUR19873087201380 | 1987-06-30T12:00 | 44.0667 | 39.0317 | 14.97 | 15.1 | 9.680 | 17.200 |
| UMUR19873087201380 | 1987-06-30T12:00 | 44.0667 | 39.0317 | 20.03 | 20.2 | 8.520 | 17.600 |
| UMUR19873087201380 | 1987-06-30T12:00 | 44.0667 | 39.0317 | 30.04 | 30.3 | 7.690 | 17.780 |
| UMUR19873087201380 | 1987-06-30T12:00 | 44.0667 | 39.0317 | 39.96 | 40.3 | 7.370 | 17.990 |
| UMUR19873087201390 | 1987-06-30T15:00 | 44.0667 | 39.0317 | 0.00 | 0.0 | 22.600 | 16.980 |
| UMUR19873087201390 | 1987-06-30T15:00 | 44.0667 | 39.0317 | 8.03 | 8.1 | ?16.400 | 17.070 |
| UMUR19873087201390 | 1987-06-30T15:00 | 44.0667 | 39.0317 | 10.01 | 10.1 | 12.900 | 17.090 |
| UMUR19873087201390 | 1987-06-30T15:00 | 44.0667 | 39.0317 | 14.97 | 15.1 | 11.070 | 17.180 |
| UMUR19873087201390 | 1987-06-30T15:00 | 44.0667 | 39.0317 | 20.03 | 20.2 | 9.240 | 17.610 |
| UMUR19873087201390 | 1987-06-30T15:00 | 44.0667 | 39.0317 | 30.04 | 30.3 | 7.500 | 17.760 |
| UMUR19873087201390 | 1987-06-30T15:00 | 44.0667 | 39.0317 | 39.96 | 40.3 | 7.220 | 17.980 |
| UMUR19873147200010 | 1987-04-03T05:28 | 44.5000 | 34.1817 | 0.00 | 0.0 | 7.400 | /17.900 |
| UMUR19873147200010 | 1987-04-03T05:28 | 44.5000 | 34.1817 | 10.01 | 10.1 | 7.420 | /17.900 |
| UMUR19873147200010 | 1987-04-03T05:28 | 44.5000 | 34.1817 | 12.00 | 12.1 | 7.430 | /17.900 |
| UMUR19873147200020 | 1987-04-03T05:50 | 44.4817 | 34.1667 | 0.00 | 0.0 | 7.500 | 13.530 |
| UMUR19873147200020 | 1987-04-03T05:50 | 44.4817 | 34.1667 | 4.96 | 5.0 | 7.460 | 17.630 |
| UMUR19873147200030 | 1987-04-03T06:20 | 44.5000 | 34.1667 | 0.00 | 0.0 | 7.500 | 13.260 |
| UMUR19873147200030 | 1987-04-03T06:20 | 44.5000 | 34.1667 | 8.03 | 8.1 | 7.450 | 17.630 |
| UMUR19873147200040 | 1987-05-19T06:30 | 44.4000 | 34.3667 | 0.00 | 0.0 | 15.700 | 17.670 |
| UMUR19873147200040 | 1987-05-19T06:30 | 44.4000 | 34.3667 | 4.96 | 5.0 | 11.440 | 17.670 |
| UMUR19873147200040 | 1987-05-19T06:30 | 44.4000 | 34.3667 | 10.01 | 10.1 | 9.700 | 17.670 |
| UMUR19873147200040 | 1987-05-19T06:30 | 44.4000 | 34.3667 | 20.03 | 20.2 | 8.320 | 17.670 |
| UMUR19873147200040 | 1987-05-19T06:30 | 44.4000 | 34.3667 | 30.04 | 30.3 | 7.640 | 17.760 |
| UMUR19873147200040 | 1987-05-19T06:30 | 44.4000 | 34.3667 | 49.97 | 50.4 | 6.080 | 18.030 |
| UMUR19873147200040 | 1987-05-19T06:30 | 44.4000 | 34.3667 | 74.95 | 75.6 | 6.270 | 18.480 |
| UMUR19873147200040 | 1987-05-19T06:30 | 44.4000 | 34.3667 | 100.03 | 100.9 | 7.390 | 19.220 |
| UMUR19873147200040 | 1987-05-19T06:30 | 44.4000 | 34.3667 | 149.97 | 151.3 | 8.330 | 20.290 |
| UMUR19873147200040 | 1987-05-19T06:30 | 44.4000 | 34.3667 | 200.01 | 201.8 | 8.580 | 21.370 |
| UMUR19873147200050 | 1987-05-19T08:20 | 44.4500 | 34.2667 | 0.00 | 0.0 | 15.600 | 17.360 |
| UMUR19873147200050 | 1987-05-19T08:20 | 44.4500 | 34.2667 | 4.96 | 5.0 | 11.120 | 17.580 |
| UMUR19873147200050 | 1987-05-19T08:20 | 44.4500 | 34.2667 | 10.01 | 10.1 | 10.160 | 17.670 |
| UMUR19873147200050 | 1987-05-19T08:20 | 44.4500 | 34.2667 | 20.03 | 20.2 | 8.320 | 17.760 |
| UMUR19873147200050 | 1987-05-19T08:20 | 44.4500 | 34.2667 | 30.04 | 30.3 | 8.050 | 17.940 |
| UMUR19873147200050 | 1987-05-19T08:20 | 44.4500 | 34.2667 | 49.97 | 50.4 | 6.220 | 18.030 |
| UMUR19873147200050 | 1987-05-19T08:20 | 44.4500 | 34.2667 | 74.95 | 75.6 | 6.040 | 18.210 |
| UMUR19873147200050 | 1987-05-19T08:20 | 44.4500 | 34.2667 | 90.01 | 90.8 | 6.170 | 18.320 |
| UMUR19873147200060 | 1987-05-19T09:40 | 44.4817 | 34.1817 | 0.00 | 0.0 | 14.100 | 17.670 |
| UMUR19873147200060 | 1987-05-19T09:40 | 44.4817 | 34.1817 | 10.01 | 10.1 | 9.460 | 17.760 |
| UMUR19873147200060 | 1987-05-19T09:40 | 44.4817 | 34.1817 | 20.03 | 20.2 | 8.310 | 17.760 |
| UMUR19873147200060 | 1987-05-19T09:40 | 44.4817 | 34.1817 | 30.04 | 30.3 | 7.900 | 17.760 |
| UMUR19873147200060 | 1987-05-19T09:40 | 44.4817 | 34.1817 | 49.97 | 50.4 | 6.340 | 17.850 |
| UMUR19873147200070 | 1987-05-19T10:20 | 44.4817 | 34.1667 | 0.00 | 0.0 | 14.000 | 17.740 |
| UMUR19873147200070 | 1987-05-19T10:20 | 44.4817 | 34.1667 | 10.01 | 10.1 | 12.120 | 17.760 |
| UMUR19873147200070 | 1987-05-19T10:20 | 44.4817 | 34.1667 | 20.03 | 20.2 | 9.940 | 17.850 |
| UMUR19873147200070 | 1987-05-19T10:20 | 44.4817 | 34.1667 | 24.99 | 25.2 | 9.000 | 17.850 |
| UMUR19873147200080 | 1987-05-20T05:55 | 44.4817 | 34.1817 | 0.00 | 0.0 | 14.100 | 17.850 |
| UMUR19873147200080 | 1987-05-20T05:55 | 44.4817 | 34.1817 | 10.01 | 10.1 | 12.580 | 18.120 |
| UMUR19873147200080 | 1987-05-20T05:55 | 44.4817 | 34.1817 | 20.03 | 20.2 | 8.550 | 18.210 |
| UMUR19873147200080 | 1987-05-20T05:55 | 44.4817 | 34.1817 | 30.04 | 30.3 | 7.870 | 18.210 |
| UMUR19873147200080 | 1987-05-20T05:55 | 44.4817 | 34.1817 | 49.97 | 50.4 | 6.150 | 18.210 |
| UMUR19873147200090 | 1987-05-20T06:25 | 44.5000 | 34.1817 | 0.00 | 0.0 | 14.700 | 17.380 |
| UMUR19873147200090 | 1987-05-20T06:25 | 44.5000 | 34.1817 | 10.01 | 10.1 | 14.740 | 17.580 |
| UMUR19873147200090 | 1987-05-20T06:25 | 44.5000 | 34.1817 | 12.00 | 12.1 | 11.390 | 17.740 |
| UMUR19873147200100 | 1987-05-20T07:00 | 44.4817 | 34.1667 | 0.00 | 0.0 | 14.800 | 16.950 |
| UMUR19873147200100 | 1987-05-20T07:00 | 44.4817 | 34.1667 | 4.96 | 5.0 | 14.850 | 17.400 |
| UMUR19873147200110 | 1987-05-20T07:28 | 44.5000 | 34.1667 | 0.00 | 0.0 | 14.300 | 17.040 |
| UMUR19873147200110 | 1987-05-20T07:28 | 44.5000 | 34.1667 | 8.03 | 8.1 | 13.980 | 17.400 |
| UMUR19873147200120 | 1987-05-20T07:56 | 44.5000 | 34.1817 | 0.00 | 0.0 | 7.600 | 17.880 |
| UMUR19873147200120 | 1987-05-20T07:56 | 44.5000 | 34.1817 | 10.01 | 10.1 | 7.020 | 18.300 |
| UMUR19873147200120 | 1987-05-20T07:56 | 44.5000 | 34.1817 | 12.00 | 12.1 | 6.830 | 18.300 |
| UMUR19873147200130 | 1987-05-20T09:00 | 44.4817 | 34.1817 | 0.00 | 0.0 | 14.400 | 17.830 |
| UMUR19873147200130 | 1987-05-20T09:00 | 44.4817 | 34.1817 | 10.01 | 10.1 | 14.580 | 17.960 |
| UMUR19873147200130 | 1987-05-20T09:00 | 44.4817 | 34.1817 | 14.97 | 15.1 | 9.500 | 18.030 |
| UMUR19873147200130 | 1987-05-20T09:00 | 44.4817 | 34.1817 | 20.03 | 20.2 | 8.350 | 18.120 |
| UMUR19873147200130 | 1987-05-20T09:00 | 44.4817 | 34.1817 | 30.04 | 30.3 | 7.600 | 18.300 |
| UMUR19873147200130 | 1987-05-20T09:00 | 44.4817 | 34.1817 | 49.97 | 50.4 | 6.250 | 18.300 |
| UMUR19873147200140 | 1987-05-20T12:00 | 44.4817 | 34.1817 | 0.00 | 0.0 | 14.500 | 17.760 |
| UMUR19873147200140 | 1987-05-20T12:00 | 44.4817 | 34.1817 | 10.01 | 10.1 | 13.960 | 17.940 |
| UMUR19873147200140 | 1987-05-20T12:00 | 44.4817 | 34.1817 | 12.99 | 13.1 | 10.640 | 18.030 |
| UMUR19873147200140 | 1987-05-20T12:00 | 44.4817 | 34.1817 | 20.03 | 20.2 | 8.400 | 18.120 |
| UMUR19873147200140 | 1987-05-20T12:00 | 44.4817 | 34.1817 | 30.04 | 30.3 | 7.680 | 18.120 |
| UMUR19873147200140 | 1987-05-20T12:00 | 44.4817 | 34.1817 | 49.97 | 50.4 | 6.240 | 18.210 |
| UMUR19873147200150 | 1987-05-20T15:00 | 44.4817 | 34.1817 | 0.00 | 0.0 | 14.300 | 17.760 |
| UMUR19873147200150 | 1987-05-20T15:00 | 44.4817 | 34.1817 | 10.01 | 10.1 | 11.160 | 18.030 |
| UMUR19873147200150 | 1987-05-20T15:00 | 44.4817 | 34.1817 | 20.03 | 20.2 | 8.800 | 18.120 |
| UMUR19873147200150 | 1987-05-20T15:00 | 44.4817 | 34.1817 | 30.04 | 30.3 | 7.560 | 18.190 |
| UMUR19873147200150 | 1987-05-20T15:00 | 44.4817 | 34.1817 | 49.97 | 50.4 | 6.090 | 18.390 |
| UMUR19873147200160 | 1987-05-20T18:00 | 44.4817 | 34.1817 | 0.00 | 0.0 | 14.400 | 17.850 |
| UMUR19873147200160 | 1987-05-20T18:00 | 44.4817 | 34.1817 | 10.01 | 10.1 | 10.400 | 18.080 |
| UMUR19873147200160 | 1987-05-20T18:00 | 44.4817 | 34.1817 | 20.03 | 20.2 | 8.040 | 18.120 |
| UMUR19873147200160 | 1987-05-20T18:00 | 44.4817 | 34.1817 | 30.04 | 30.3 | 7.240 | 18.210 |
| UMUR19873147200160 | 1987-05-20T18:00 | 44.4817 | 34.1817 | 49.97 | 50.4 | 6.100 | 18.280 |
| UMUR19873147200170 | 1987-05-20T21:00 | 44.4817 | 34.1817 | 0.00 | 0.0 | 14.400 | 17.810 |
| UMUR19873147200170 | 1987-05-20T21:00 | 44.4817 | 34.1817 | 10.01 | 10.1 | 9.880 | 17.940 |
| UMUR19873147200170 | 1987-05-20T21:00 | 44.4817 | 34.1817 | 20.03 | 20.2 | 8.770 | 17.960 |
| UMUR19873147200170 | 1987-05-20T21:00 | 44.4817 | 34.1817 | 30.04 | 30.3 | 7.690 | 18.120 |
| UMUR19873147200170 | 1987-05-20T21:00 | 44.4817 | 34.1817 | 49.97 | 50.4 | 6.200 | 18.300 |
| UMUR19873147200180 | 1987-05-21T00:00 | 44.4817 | 34.1817 | 0.00 | 0.0 | 14.400 | 17.670 |
| UMUR19873147200180 | 1987-05-21T00:00 | 44.4817 | 34.1817 | 10.01 | 10.1 | 9.860 | 18.030 |
| UMUR19873147200180 | 1987-05-21T00:00 | 44.4817 | 34.1817 | 20.03 | 20.2 | 7.920 | 18.120 |
| UMUR19873147200180 | 1987-05-21T00:00 | 44.4817 | 34.1817 | 30.04 | 30.3 | 7.130 | 18.210 |
| UMUR19873147200180 | 1987-05-21T00:00 | 44.4817 | 34.1817 | 49.97 | 50.4 | 6.200 | 18.480 |
| UMUR19873147200190 | 1987-05-21T02:59 | 44.4817 | 34.1817 | 0.00 | 0.0 | 14.300 | 17.870 |
| UMUR19873147200190 | 1987-05-21T02:59 | 44.4817 | 34.1817 | 10.01 | 10.1 | 9.720 | 18.030 |
| UMUR19873147200190 | 1987-05-21T02:59 | 44.4817 | 34.1817 | 20.03 | 20.2 | 8.050 | 18.210 |
| UMUR19873147200190 | 1987-05-21T02:59 | 44.4817 | 34.1817 | 30.04 | 30.3 | 7.910 | 18.250 |
| UMUR19873147200190 | 1987-05-21T02:59 | 44.4817 | 34.1817 | 49.97 | 50.4 | 6.110 | 18.390 |
| UMUR19873147200200 | 1987-05-21T05:57 | 44.4817 | 34.1817 | 0.00 | 0.0 | 14.100 | 17.760 |
| UMUR19873147200200 | 1987-05-21T05:57 | 44.4817 | 34.1817 | 10.01 | 10.1 | 9.740 | 17.940 |
| UMUR19873147200200 | 1987-05-21T05:57 | 44.4817 | 34.1817 | 20.03 | 20.2 | 8.220 | 17.940 |
| UMUR19873147200200 | 1987-05-21T05:57 | 44.4817 | 34.1817 | 30.04 | 30.3 | 7.040 | 18.120 |
| UMUR19873147200200 | 1987-05-21T05:57 | 44.4817 | 34.1817 | 49.97 | 50.4 | 6.070 | 18.390 |
| UMUR19873147200210 | 1987-05-25T08:39 | 44.4817 | 34.1667 | 0.00 | 0.0 | 8.000 | 18.030 |
| UMUR19873147200210 | 1987-05-25T08:39 | 44.4817 | 34.1667 | 4.96 | 5.0 | 7.320 | 18.210 |
| UMUR19873147200220 | 1987-05-25T09:30 | 44.5000 | 34.1667 | 0.00 | 0.0 | 8.000 | 17.850 |
| UMUR19873147200220 | 1987-05-25T09:30 | 44.5000 | 34.1667 | 8.03 | 8.1 | 7.540 | 18.390 |
| UMUR19873147200230 | 1987-05-26T08:20 | 44.4500 | 34.2500 | 0.00 | 0.0 | 12.000 | 17.940 |
| UMUR19873147200230 | 1987-05-26T08:20 | 44.4500 | 34.2500 | 10.01 | 10.1 | 10.820 | 17.960 |
| UMUR19873147200230 | 1987-05-26T08:20 | 44.4500 | 34.2500 | 24.99 | 25.2 | 6.140 | 18.210 |
| UMUR19873147200230 | 1987-05-26T08:20 | 44.4500 | 34.2500 | 49.97 | 50.4 | 5.760 | 18.390 |
| UMUR19873147200230 | 1987-05-26T08:20 | 44.4500 | 34.2500 | 74.95 | 75.6 | 6.300 | 18.840 |
| UMUR19873147200230 | 1987-05-26T08:20 | 44.4500 | 34.2500 | 88.03 | 88.8 | 6.690 | 19.040 |
| UMUR19873147200240 | 1987-05-26T09:00 | 44.5000 | 34.2500 | 0.00 | 0.0 | 12.180 | 16.990 |
| UMUR19873147200240 | 1987-05-26T09:00 | 44.5000 | 34.2500 | 4.96 | 5.0 | 11.600 | 17.020 |
| UMUR19873147200240 | 1987-05-26T09:00 | 44.5000 | 34.2500 | 10.01 | 10.1 | 11.310 | 16.990 |
| UMUR19873147200240 | 1987-05-26T09:00 | 44.5000 | 34.2500 | 20.03 | 20.2 | 7.850 | 17.260 |
| UMUR19873147200240 | 1987-05-26T09:00 | 44.5000 | 34.2500 | 30.04 | 30.3 | 6.360 | 17.330 |
| UMUR19873147200240 | 1987-05-26T09:00 | 44.5000 | 34.2500 | 49.97 | 50.4 | 5.770 | 17.550 |
| UMUR19873147200250 | 1987-05-26T10:00 | 44.4317 | 34.2500 | 0.00 | 0.0 | 11.530 | 17.020 |
| UMUR19873147200250 | 1987-05-26T10:00 | 44.4317 | 34.2500 | 4.96 | 5.0 | 11.260 | 17.020 |
| UMUR19873147200250 | 1987-05-26T10:00 | 44.4317 | 34.2500 | 10.01 | 10.1 | 11.240 | 17.020 |
| UMUR19873147200250 | 1987-05-26T10:00 | 44.4317 | 34.2500 | 20.03 | 20.2 | 8.040 | 17.160 |
| UMUR19873147200250 | 1987-05-26T10:00 | 44.4317 | 34.2500 | 30.04 | 30.3 | 6.130 | 17.390 |
| UMUR19873147200250 | 1987-05-26T10:00 | 44.4317 | 34.2500 | 49.97 | 50.4 | 5.770 | 17.500 |
| UMUR19873147200250 | 1987-05-26T10:00 | 44.4317 | 34.2500 | 74.95 | 75.6 | 5.830 | 17.790 |
| UMUR19873147200250 | 1987-05-26T10:00 | 44.4317 | 34.2500 | 100.03 | 100.9 | 6.990 | 18.310 |
| UMUR19873147200260 | 1987-05-26T11:00 | 44.3500 | 34.2500 | 0.00 | 0.0 | 10.910 | 16.970 |
| UMUR19873147200260 | 1987-05-26T11:00 | 44.3500 | 34.2500 | 4.96 | 5.0 | 10.780 | 16.950 |
| UMUR19873147200260 | 1987-05-26T11:00 | 44.3500 | 34.2500 | 10.01 | 10.1 | 10.640 | 16.980 |
| UMUR19873147200260 | 1987-05-26T11:00 | 44.3500 | 34.2500 | 20.03 | 20.2 | 7.590 | 17.210 |
| UMUR19873147200260 | 1987-05-26T11:00 | 44.3500 | 34.2500 | 30.04 | 30.3 | 7.040 | 17.260 |
| UMUR19873147200260 | 1987-05-26T11:00 | 44.3500 | 34.2500 | 49.97 | 50.4 | 5.940 | 17.430 |
| UMUR19873147200260 | 1987-05-26T11:00 | 44.3500 | 34.2500 | 74.95 | 75.6 | 6.090 | 17.700 |
| UMUR19873147200260 | 1987-05-26T11:00 | 44.3500 | 34.2500 | 100.03 | 100.9 | 7.440 | 18.630 |
| UMUR19873147200260 | 1987-05-26T11:00 | 44.3500 | 34.2500 | 149.97 | 151.3 | 8.320 | 19.740 |
| UMUR19873147200260 | 1987-05-26T11:00 | 44.3500 | 34.2500 | 200.01 | 201.8 | 8.390 | 20.530 |
| UMUR19873147200270 | 1987-05-26T11:20 | 44.3150 | 34.2500 | 0.00 | 0.0 | 9.100 | 17.490 |
| UMUR19873147200270 | 1987-05-26T11:20 | 44.3150 | 34.2500 | 4.96 | 5.0 | 9.030 | 18.120 |
| UMUR19873147200280 | 1987-05-26T12:00 | 44.2667 | 34.2500 | 0.00 | 0.0 | 12.300 | 16.900 |
| UMUR19873147200280 | 1987-05-26T12:00 | 44.2667 | 34.2500 | 4.96 | 5.0 | 11.400 | 16.880 |
| UMUR19873147200280 | 1987-05-26T12:00 | 44.2667 | 34.2500 | 10.01 | 10.1 | 11.590 | 16.900 |
| UMUR19873147200280 | 1987-05-26T12:00 | 44.2667 | 34.2500 | 20.03 | 20.2 | 10.200 | 17.140 |
| UMUR19873147200280 | 1987-05-26T12:00 | 44.2667 | 34.2500 | 30.04 | 30.3 | 6.990 | 17.240 |
| UMUR19873147200280 | 1987-05-26T12:00 | 44.2667 | 34.2500 | 49.97 | 50.4 | 5.870 | 17.430 |
| UMUR19873147200280 | 1987-05-26T12:00 | 44.2667 | 34.2500 | 74.95 | 75.6 | 5.940 | 17.830 |
| UMUR19873147200280 | 1987-05-26T12:00 | 44.2667 | 34.2500 | 100.03 | 100.9 | 7.630 | 18.810 |
| UMUR19873147200280 | 1987-05-26T12:00 | 44.2667 | 34.2500 | 149.97 | 151.3 | 8.420 | 19.920 |
| UMUR19873147200280 | 1987-05-26T12:00 | 44.2667 | 34.2500 | 200.01 | 201.8 | 8.570 | 20.570 |
| UMUR19873147200290 | 1987-05-27T09:00 | 44.4000 | 34.5000 | 0.00 | 0.0 | 11.960 | 16.890 |
| UMUR19873147200290 | 1987-05-27T09:00 | 44.4000 | 34.5000 | 4.96 | 5.0 | 11.260 | 16.890 |
| UMUR19873147200290 | 1987-05-27T09:00 | 44.4000 | 34.5000 | 10.01 | 10.1 | 9.180 | 16.950 |
| UMUR19873147200290 | 1987-05-27T09:00 | 44.4000 | 34.5000 | 20.03 | 20.2 | 7.380 | 17.100 |
| UMUR19873147200290 | 1987-05-27T09:00 | 44.4000 | 34.5000 | 30.04 | 30.3 | 6.640 | 17.180 |
| UMUR19873147200290 | 1987-05-27T09:00 | 44.4000 | 34.5000 | 49.97 | 50.4 | 6.040 | 17.300 |
| UMUR19873147200290 | 1987-05-27T09:00 | 44.4000 | 34.5000 | 74.95 | 75.6 | 5.940 | 17.510 |
| UMUR19873147200290 | 1987-05-27T09:00 | 44.4000 | 34.5000 | 149.97 | 151.3 | 7.260 | 19.770 |
| UMUR19873147200290 | 1987-05-27T09:00 | 44.4000 | 34.5000 | 200.01 | 201.8 | 8.550 | 20.420 |
| UMUR19873147200300 | 1987-05-27T10:00 | 44.4817 | 34.5000 | 0.00 | 0.0 | 12.100 | 16.940 |
| UMUR19873147200300 | 1987-05-27T10:00 | 44.4817 | 34.5000 | 4.96 | 5.0 | 11.740 | 16.940 |
| UMUR19873147200300 | 1987-05-27T10:00 | 44.4817 | 34.5000 | 10.01 | 10.1 | 11.620 | 16.940 |
| UMUR19873147200300 | 1987-05-27T10:00 | 44.4817 | 34.5000 | 20.03 | 20.2 | 7.800 | 17.060 |
| UMUR19873147200300 | 1987-05-27T10:00 | 44.4817 | 34.5000 | 30.04 | 30.3 | 7.010 | 17.130 |
| UMUR19873147200300 | 1987-05-27T10:00 | 44.4817 | 34.5000 | 49.97 | 50.4 | 6.180 | 17.260 |
| UMUR19873147200300 | 1987-05-27T10:00 | 44.4817 | 34.5000 | 74.95 | 75.6 | 5.920 | 17.480 |
| UMUR19873147200300 | 1987-05-27T10:00 | 44.4817 | 34.5000 | 100.03 | 100.9 | 6.620 | 18.060 |
| UMUR19873147200300 | 1987-05-27T10:00 | 44.4817 | 34.5000 | 149.97 | 151.3 | 7.340 | 19.620 |
| UMUR19873147200300 | 1987-05-27T10:00 | 44.4817 | 34.5000 | 200.00 | 201.8 | 8.550 | 20.320 |
